<?xml version='1.0' encoding='UTF-8'?>
<gpx version="1.1" creator="https://www.komoot.de" xmlns="http://www.topografix.com/GPX/1/1" xmlns:xsi="http://www.w3.org/2001/XMLSchema-instance" xsi:schemaLocation="http://www.topografix.com/GPX/1/1 http://www.topografix.com/GPX/1/1/gpx.xsd">
  <metadata>
    <name>Vega de Liordes rondwandeling PR-PNPE 25</name>
    <author>
      <link href="https://www.komoot.de">
        <text>komoot</text>
        <type>text/html</type>
      </link>
    </author>
  </metadata>
  <trk>
    <name>Vega de Liordes rondwandeling PR-PNPE 25</name>
    <trkseg>
      <trkpt lat="43.144383" lon="-4.812414">
        <ele>1085.938362</ele>
        <time>2025-09-03T20:35:30.343Z</time>
      </trkpt>
      <trkpt lat="43.144397" lon="-4.812611">
        <ele>1085.938362</ele>
        <time>2025-09-03T20:35:45.008Z</time>
      </trkpt>
      <trkpt lat="43.144381" lon="-4.812822">
        <ele>1085.938362</ele>
        <time>2025-09-03T20:36:00.537Z</time>
      </trkpt>
      <trkpt lat="43.144423" lon="-4.812800">
        <ele>1085.938362</ele>
        <time>2025-09-03T20:36:05.117Z</time>
      </trkpt>
      <trkpt lat="43.144479" lon="-4.812630">
        <ele>1085.938362</ele>
        <time>2025-09-03T20:36:19.258Z</time>
      </trkpt>
      <trkpt lat="43.144568" lon="-4.812635">
        <ele>1085.938362</ele>
        <time>2025-09-03T20:36:28.473Z</time>
      </trkpt>
      <trkpt lat="43.144568" lon="-4.812704">
        <ele>1085.938362</ele>
        <time>2025-09-03T20:36:34.013Z</time>
      </trkpt>
      <trkpt lat="43.144562" lon="-4.813422">
        <ele>1087.093990</ele>
        <time>2025-09-03T20:37:29.491Z</time>
      </trkpt>
      <trkpt lat="43.144562" lon="-4.813518">
        <ele>1087.425377</ele>
        <time>2025-09-03T20:37:36.877Z</time>
      </trkpt>
      <trkpt lat="43.144555" lon="-4.814349">
        <ele>1090.294140</ele>
        <time>2025-09-03T20:38:41.925Z</time>
      </trkpt>
      <trkpt lat="43.144666" lon="-4.814346">
        <ele>1090.819394</ele>
        <time>2025-09-03T20:38:54.784Z</time>
      </trkpt>
      <trkpt lat="43.144796" lon="-4.814405">
        <ele>1091.467280</ele>
        <time>2025-09-03T20:39:15.153Z</time>
      </trkpt>
      <trkpt lat="43.145002" lon="-4.814145">
        <ele>1092.792183</ele>
        <time>2025-09-03T20:39:58.593Z</time>
      </trkpt>
      <trkpt lat="43.145294" lon="-4.813922">
        <ele>1094.373652</ele>
        <time>2025-09-03T20:40:52.729Z</time>
      </trkpt>
      <trkpt lat="43.145461" lon="-4.813950">
        <ele>1096.531024</ele>
        <time>2025-09-03T20:41:20.318Z</time>
      </trkpt>
      <trkpt lat="43.145631" lon="-4.814101">
        <ele>1099.297315</ele>
        <time>2025-09-03T20:41:53.947Z</time>
      </trkpt>
      <trkpt lat="43.145741" lon="-4.814299">
        <ele>1101.776813</ele>
        <time>2025-09-03T20:42:25.035Z</time>
      </trkpt>
      <trkpt lat="43.146109" lon="-4.814529">
        <ele>1107.299828</ele>
        <time>2025-09-03T20:43:42.773Z</time>
      </trkpt>
      <trkpt lat="43.146276" lon="-4.814680">
        <ele>1110.031823</ele>
        <time>2025-09-03T20:44:24.148Z</time>
      </trkpt>
      <trkpt lat="43.146480" lon="-4.814962">
        <ele>1113.988335</ele>
        <time>2025-09-03T20:45:26.496Z</time>
      </trkpt>
      <trkpt lat="43.146577" lon="-4.815166">
        <ele>1116.414327</ele>
        <time>2025-09-03T20:46:05.702Z</time>
      </trkpt>
      <trkpt lat="43.146773" lon="-4.815139">
        <ele>1119.130617</ele>
        <time>2025-09-03T20:46:49.492Z</time>
      </trkpt>
      <trkpt lat="43.146939" lon="-4.815234">
        <ele>1122.267304</ele>
        <time>2025-09-03T20:47:30.068Z</time>
      </trkpt>
      <trkpt lat="43.147172" lon="-4.815429">
        <ele>1127.027581</ele>
        <time>2025-09-03T20:48:31.910Z</time>
      </trkpt>
      <trkpt lat="43.147412" lon="-4.815740">
        <ele>1132.786617</ele>
        <time>2025-09-03T20:49:47.542Z</time>
      </trkpt>
      <trkpt lat="43.147550" lon="-4.815983">
        <ele>1136.704123</ele>
        <time>2025-09-03T20:50:39.485Z</time>
      </trkpt>
      <trkpt lat="43.147552" lon="-4.816093">
        <ele>1138.103951</ele>
        <time>2025-09-03T20:50:58.182Z</time>
      </trkpt>
      <trkpt lat="43.147238" lon="-4.816416">
        <ele>1144.949548</ele>
        <time>2025-09-03T20:52:28.345Z</time>
      </trkpt>
      <trkpt lat="43.147211" lon="-4.816466">
        <ele>1145.740912</ele>
        <time>2025-09-03T20:52:38.539Z</time>
      </trkpt>
      <trkpt lat="43.147211" lon="-4.816483">
        <ele>1145.957184</ele>
        <time>2025-09-03T20:52:41.351Z</time>
      </trkpt>
      <trkpt lat="43.147211" lon="-4.816531">
        <ele>1146.567832</ele>
        <time>2025-09-03T20:52:49.313Z</time>
      </trkpt>
      <trkpt lat="43.147584" lon="-4.816782">
        <ele>1153.098426</ele>
        <time>2025-09-03T20:54:20.523Z</time>
      </trkpt>
      <trkpt lat="43.147842" lon="-4.816800">
        <ele>1156.667271</ele>
        <time>2025-09-03T20:55:14.587Z</time>
      </trkpt>
      <trkpt lat="43.148065" lon="-4.816942">
        <ele>1160.064215</ele>
        <time>2025-09-03T20:56:03.121Z</time>
      </trkpt>
      <trkpt lat="43.148176" lon="-4.816970">
        <ele>1161.623416</ele>
        <time>2025-09-03T20:56:24.345Z</time>
      </trkpt>
      <trkpt lat="43.148319" lon="-4.816952">
        <ele>1163.607252</ele>
        <time>2025-09-03T20:56:50.765Z</time>
      </trkpt>
      <trkpt lat="43.148655" lon="-4.816736">
        <ele>1168.734228</ele>
        <time>2025-09-03T20:57:56.150Z</time>
      </trkpt>
      <trkpt lat="43.149081" lon="-4.816605">
        <ele>1174.765647</ele>
        <time>2025-09-03T20:59:12.498Z</time>
      </trkpt>
      <trkpt lat="43.149174" lon="-4.816539">
        <ele>1176.369040</ele>
        <time>2025-09-03T20:59:31.703Z</time>
      </trkpt>
      <trkpt lat="43.149456" lon="-4.816126">
        <ele>1182.969662</ele>
        <time>2025-09-03T21:00:52.074Z</time>
      </trkpt>
      <trkpt lat="43.149653" lon="-4.815785">
        <ele>1188.045168</ele>
        <time>2025-09-03T21:01:56.928Z</time>
      </trkpt>
      <trkpt lat="43.149694" lon="-4.815857">
        <ele>1189.110943</ele>
        <time>2025-09-03T21:02:11.529Z</time>
      </trkpt>
      <trkpt lat="43.149644" lon="-4.816155">
        <ele>1192.679019</ele>
        <time>2025-09-03T21:02:59.159Z</time>
      </trkpt>
      <trkpt lat="43.149658" lon="-4.816658">
        <ele>1198.552698</ele>
        <time>2025-09-03T21:04:21.874Z</time>
      </trkpt>
      <trkpt lat="43.149555" lon="-4.817036">
        <ele>1203.261112</ele>
        <time>2025-09-03T21:05:31.158Z</time>
      </trkpt>
      <trkpt lat="43.149486" lon="-4.817223">
        <ele>1206.120371</ele>
        <time>2025-09-03T21:06:08.428Z</time>
      </trkpt>
      <trkpt lat="43.149423" lon="-4.817275">
        <ele>1207.579843</ele>
        <time>2025-09-03T21:06:26.534Z</time>
      </trkpt>
      <trkpt lat="43.149215" lon="-4.817663">
        <ele>1214.551172</ele>
        <time>2025-09-03T21:07:52.341Z</time>
      </trkpt>
      <trkpt lat="43.149075" lon="-4.818151">
        <ele>1222.143534</ele>
        <time>2025-09-03T21:09:25.356Z</time>
      </trkpt>
      <trkpt lat="43.148737" lon="-4.818550">
        <ele>1230.996235</ele>
        <time>2025-09-03T21:11:15.575Z</time>
      </trkpt>
      <trkpt lat="43.148663" lon="-4.818665">
        <ele>1233.216428</ele>
        <time>2025-09-03T21:11:43.353Z</time>
      </trkpt>
      <trkpt lat="43.148634" lon="-4.818766">
        <ele>1234.787988</ele>
        <time>2025-09-03T21:12:03.025Z</time>
      </trkpt>
      <trkpt lat="43.148700" lon="-4.818774">
        <ele>1236.102916</ele>
        <time>2025-09-03T21:12:19.471Z</time>
      </trkpt>
      <trkpt lat="43.148795" lon="-4.818727">
        <ele>1238.107314</ele>
        <time>2025-09-03T21:12:44.391Z</time>
      </trkpt>
      <trkpt lat="43.149335" lon="-4.818595">
        <ele>1248.920505</ele>
        <time>2025-09-03T21:14:59.513Z</time>
      </trkpt>
      <trkpt lat="43.149626" lon="-4.818471">
        <ele>1254.921101</ele>
        <time>2025-09-03T21:16:14.192Z</time>
      </trkpt>
      <trkpt lat="43.149724" lon="-4.818475">
        <ele>1256.851674</ele>
        <time>2025-09-03T21:16:38.065Z</time>
      </trkpt>
      <trkpt lat="43.149797" lon="-4.818518">
        <ele>1258.416231</ele>
        <time>2025-09-03T21:16:57.288Z</time>
      </trkpt>
      <trkpt lat="43.149797" lon="-4.818555">
        <ele>1258.947770</ele>
        <time>2025-09-03T21:17:03.768Z</time>
      </trkpt>
      <trkpt lat="43.149478" lon="-4.819008">
        <ele>1267.992523</ele>
        <time>2025-09-03T21:18:54.266Z</time>
      </trkpt>
      <trkpt lat="43.149344" lon="-4.819365">
        <ele>1273.760140</ele>
        <time>2025-09-03T21:20:04.479Z</time>
      </trkpt>
      <trkpt lat="43.149338" lon="-4.819414">
        <ele>1274.473922</ele>
        <time>2025-09-03T21:20:13.036Z</time>
      </trkpt>
      <trkpt lat="43.149353" lon="-4.819466">
        <ele>1275.299048</ele>
        <time>2025-09-03T21:20:22.946Z</time>
      </trkpt>
      <trkpt lat="43.149381" lon="-4.819563">
        <ele>1276.981838</ele>
        <time>2025-09-03T21:20:40.997Z</time>
      </trkpt>
      <trkpt lat="43.149401" lon="-4.819947">
        <ele>1283.192132</ele>
        <time>2025-09-03T21:21:46.963Z</time>
      </trkpt>
      <trkpt lat="43.149439" lon="-4.820150">
        <ele>1286.572915</ele>
        <time>2025-09-03T21:22:23.305Z</time>
      </trkpt>
      <trkpt lat="43.149486" lon="-4.820212">
        <ele>1288.015235</ele>
        <time>2025-09-03T21:22:39.017Z</time>
      </trkpt>
      <trkpt lat="43.149597" lon="-4.819877">
        <ele>1293.950523</ele>
        <time>2025-09-03T21:23:45.100Z</time>
      </trkpt>
      <trkpt lat="43.149734" lon="-4.819600">
        <ele>1299.348944</ele>
        <time>2025-09-03T21:24:47.821Z</time>
      </trkpt>
      <trkpt lat="43.149916" lon="-4.819491">
        <ele>1303.740518</ele>
        <time>2025-09-03T21:25:40.874Z</time>
      </trkpt>
      <trkpt lat="43.150129" lon="-4.819504">
        <ele>1308.454827</ele>
        <time>2025-09-03T21:26:40.636Z</time>
      </trkpt>
      <trkpt lat="43.150167" lon="-4.819559">
        <ele>1309.676766</ele>
        <time>2025-09-03T21:26:56.634Z</time>
      </trkpt>
      <trkpt lat="43.150151" lon="-4.819599">
        <ele>1310.412641</ele>
        <time>2025-09-03T21:27:06.213Z</time>
      </trkpt>
      <trkpt lat="43.149988" lon="-4.819720">
        <ele>1314.511348</ele>
        <time>2025-09-03T21:28:00.632Z</time>
      </trkpt>
      <trkpt lat="43.149955" lon="-4.819795">
        <ele>1315.994691</ele>
        <time>2025-09-03T21:28:20.064Z</time>
      </trkpt>
      <trkpt lat="43.149951" lon="-4.819900">
        <ele>1317.804147</ele>
        <time>2025-09-03T21:28:42.840Z</time>
      </trkpt>
      <trkpt lat="43.149958" lon="-4.819948">
        <ele>1318.646543</ele>
        <time>2025-09-03T21:28:53.713Z</time>
      </trkpt>
      <trkpt lat="43.150050" lon="-4.820019">
        <ele>1321.137034</ele>
        <time>2025-09-03T21:29:25.521Z</time>
      </trkpt>
      <trkpt lat="43.150108" lon="-4.820227">
        <ele>1324.969146</ele>
        <time>2025-09-03T21:30:14.801Z</time>
      </trkpt>
      <trkpt lat="43.150100" lon="-4.820702">
        <ele>1333.145804</ele>
        <time>2025-09-03T21:32:01.148Z</time>
      </trkpt>
      <trkpt lat="43.150227" lon="-4.821164">
        <ele>1341.642214</ele>
        <time>2025-09-03T21:33:47.066Z</time>
      </trkpt>
      <trkpt lat="43.150224" lon="-4.821372">
        <ele>1345.222468</ele>
        <time>2025-09-03T21:34:28.769Z</time>
      </trkpt>
      <trkpt lat="43.150246" lon="-4.821391">
        <ele>1345.835839</ele>
        <time>2025-09-03T21:34:35.813Z</time>
      </trkpt>
      <trkpt lat="43.150286" lon="-4.821348">
        <ele>1347.034957</ele>
        <time>2025-09-03T21:34:49.469Z</time>
      </trkpt>
      <trkpt lat="43.150307" lon="-4.821309">
        <ele>1347.869131</ele>
        <time>2025-09-03T21:34:58.590Z</time>
      </trkpt>
      <trkpt lat="43.150348" lon="-4.820929">
        <ele>1354.479819</ele>
        <time>2025-09-03T21:36:06.396Z</time>
      </trkpt>
      <trkpt lat="43.150449" lon="-4.820752">
        <ele>1357.998513</ele>
        <time>2025-09-03T21:36:41.263Z</time>
      </trkpt>
      <trkpt lat="43.150473" lon="-4.820736">
        <ele>1358.419139</ele>
        <time>2025-09-03T21:36:46.488Z</time>
      </trkpt>
      <trkpt lat="43.150494" lon="-4.820763">
        <ele>1358.872932</ele>
        <time>2025-09-03T21:36:52.154Z</time>
      </trkpt>
      <trkpt lat="43.150467" lon="-4.820845">
        <ele>1359.907383</ele>
        <time>2025-09-03T21:37:05.072Z</time>
      </trkpt>
      <trkpt lat="43.150460" lon="-4.821069">
        <ele>1362.485391</ele>
        <time>2025-09-03T21:37:35.329Z</time>
      </trkpt>
      <trkpt lat="43.150491" lon="-4.821085">
        <ele>1363.007464</ele>
        <time>2025-09-03T21:37:41.089Z</time>
      </trkpt>
      <trkpt lat="43.150543" lon="-4.820974">
        <ele>1364.524263</ele>
        <time>2025-09-03T21:37:57.673Z</time>
      </trkpt>
      <trkpt lat="43.150628" lon="-4.820572">
        <ele>1369.336838</ele>
        <time>2025-09-03T21:38:49.047Z</time>
      </trkpt>
      <trkpt lat="43.150604" lon="-4.820121">
        <ele>1374.536389</ele>
        <time>2025-09-03T21:39:45.379Z</time>
      </trkpt>
      <trkpt lat="43.150636" lon="-4.820043">
        <ele>1375.565344</ele>
        <time>2025-09-03T21:39:56.980Z</time>
      </trkpt>
      <trkpt lat="43.150766" lon="-4.819357">
        <ele>1383.714989</ele>
        <time>2025-09-03T21:41:45.568Z</time>
      </trkpt>
      <trkpt lat="43.150790" lon="-4.819275">
        <ele>1384.730900</ele>
        <time>2025-09-03T21:42:01.359Z</time>
      </trkpt>
      <trkpt lat="43.150834" lon="-4.819291">
        <ele>1385.448362</ele>
        <time>2025-09-03T21:42:12.691Z</time>
      </trkpt>
      <trkpt lat="43.150929" lon="-4.819802">
        <ele>1397.807941</ele>
        <time>2025-09-03T21:44:01.188Z</time>
      </trkpt>
      <trkpt lat="43.151027" lon="-4.820153">
        <ele>1406.766933</ele>
        <time>2025-09-03T21:45:33.601Z</time>
      </trkpt>
      <trkpt lat="43.151003" lon="-4.820296">
        <ele>1410.264823</ele>
        <time>2025-09-03T21:46:12.731Z</time>
      </trkpt>
      <trkpt lat="43.151011" lon="-4.820430">
        <ele>1413.469810</ele>
        <time>2025-09-03T21:46:49.346Z</time>
      </trkpt>
      <trkpt lat="43.151035" lon="-4.820433">
        <ele>1414.257263</ele>
        <time>2025-09-03T21:46:58.525Z</time>
      </trkpt>
      <trkpt lat="43.151132" lon="-4.820274">
        <ele>1419.198071</ele>
        <time>2025-09-03T21:47:56.417Z</time>
      </trkpt>
      <trkpt lat="43.151190" lon="-4.820138">
        <ele>1422.953334</ele>
        <time>2025-09-03T21:48:40.331Z</time>
      </trkpt>
      <trkpt lat="43.151269" lon="-4.819842">
        <ele>1430.466735</ele>
        <time>2025-09-03T21:50:07.459Z</time>
      </trkpt>
      <trkpt lat="43.151364" lon="-4.820068">
        <ele>1436.684414</ele>
        <time>2025-09-03T21:51:17.738Z</time>
      </trkpt>
      <trkpt lat="43.151451" lon="-4.820380">
        <ele>1444.653521</ele>
        <time>2025-09-03T21:52:45.158Z</time>
      </trkpt>
      <trkpt lat="43.151486" lon="-4.820357">
        <ele>1445.959673</ele>
        <time>2025-09-03T21:52:58.993Z</time>
      </trkpt>
      <trkpt lat="43.151528" lon="-4.820171">
        <ele>1450.739737</ele>
        <time>2025-09-03T21:53:48.195Z</time>
      </trkpt>
      <trkpt lat="43.151588" lon="-4.820164">
        <ele>1452.766113</ele>
        <time>2025-09-03T21:54:08.845Z</time>
      </trkpt>
      <trkpt lat="43.151705" lon="-4.820538">
        <ele>1462.756416</ele>
        <time>2025-09-03T21:55:52.921Z</time>
      </trkpt>
      <trkpt lat="43.151699" lon="-4.820752">
        <ele>1468.014021</ele>
        <time>2025-09-03T21:56:49.651Z</time>
      </trkpt>
      <trkpt lat="43.151512" lon="-4.820916">
        <ele>1475.484608</ele>
        <time>2025-09-03T21:58:11.075Z</time>
      </trkpt>
      <trkpt lat="43.151506" lon="-4.821052">
        <ele>1478.829534</ele>
        <time>2025-09-03T21:58:47.155Z</time>
      </trkpt>
      <trkpt lat="43.151556" lon="-4.821404">
        <ele>1487.633480</ele>
        <time>2025-09-03T22:00:21.052Z</time>
      </trkpt>
      <trkpt lat="43.151651" lon="-4.821652">
        <ele>1494.510186</ele>
        <time>2025-09-03T22:01:31.271Z</time>
      </trkpt>
      <trkpt lat="43.151702" lon="-4.821636">
        <ele>1496.270778</ele>
        <time>2025-09-03T22:01:49.343Z</time>
      </trkpt>
      <trkpt lat="43.151763" lon="-4.821306">
        <ele>1504.628325</ele>
        <time>2025-09-03T22:03:07.633Z</time>
      </trkpt>
      <trkpt lat="43.151795" lon="-4.821256">
        <ele>1505.661967</ele>
        <time>2025-09-03T22:03:22.335Z</time>
      </trkpt>
      <trkpt lat="43.151924" lon="-4.821193">
        <ele>1508.176685</ele>
        <time>2025-09-03T22:04:01.383Z</time>
      </trkpt>
      <trkpt lat="43.152011" lon="-4.821085">
        <ele>1510.332073</ele>
        <time>2025-09-03T22:04:33.409Z</time>
      </trkpt>
      <trkpt lat="43.152053" lon="-4.821074">
        <ele>1511.117281</ele>
        <time>2025-09-03T22:04:45.284Z</time>
      </trkpt>
      <trkpt lat="43.152069" lon="-4.821108">
        <ele>1511.659309</ele>
        <time>2025-09-03T22:04:53.208Z</time>
      </trkpt>
      <trkpt lat="43.152029" lon="-4.821343">
        <ele>1514.892093</ele>
        <time>2025-09-03T22:05:39.274Z</time>
      </trkpt>
      <trkpt lat="43.151986" lon="-4.821406">
        <ele>1516.047872</ele>
        <time>2025-09-03T22:05:55.134Z</time>
      </trkpt>
      <trkpt lat="43.151986" lon="-4.821462">
        <ele>1516.798089</ele>
        <time>2025-09-03T22:06:06.082Z</time>
      </trkpt>
      <trkpt lat="43.152081" lon="-4.821726">
        <ele>1520.741668</ele>
        <time>2025-09-03T22:06:57.666Z</time>
      </trkpt>
      <trkpt lat="43.152132" lon="-4.821954">
        <ele>1523.936468</ele>
        <time>2025-09-03T22:07:35.155Z</time>
      </trkpt>
      <trkpt lat="43.152124" lon="-4.822142">
        <ele>1526.459331</ele>
        <time>2025-09-03T22:08:03.724Z</time>
      </trkpt>
      <trkpt lat="43.152122" lon="-4.822190">
        <ele>1527.103421</ele>
        <time>2025-09-03T22:08:10.638Z</time>
      </trkpt>
      <trkpt lat="43.152065" lon="-4.822334">
        <ele>1529.298215</ele>
        <time>2025-09-03T22:08:34.254Z</time>
      </trkpt>
      <trkpt lat="43.151905" lon="-4.822466">
        <ele>1532.727451</ele>
        <time>2025-09-03T22:09:07.970Z</time>
      </trkpt>
      <trkpt lat="43.151834" lon="-4.822606">
        <ele>1535.011645</ele>
        <time>2025-09-03T22:09:28.951Z</time>
      </trkpt>
      <trkpt lat="43.151866" lon="-4.822804">
        <ele>1537.728514</ele>
        <time>2025-09-03T22:09:52.894Z</time>
      </trkpt>
      <trkpt lat="43.151928" lon="-4.822962">
        <ele>1540.168912</ele>
        <time>2025-09-03T22:10:13.536Z</time>
      </trkpt>
      <trkpt lat="43.151953" lon="-4.822954">
        <ele>1540.648396</ele>
        <time>2025-09-03T22:10:17.616Z</time>
      </trkpt>
      <trkpt lat="43.151968" lon="-4.822865">
        <ele>1541.893030</ele>
        <time>2025-09-03T22:10:28.084Z</time>
      </trkpt>
      <trkpt lat="43.152027" lon="-4.822783">
        <ele>1543.462325</ele>
        <time>2025-09-03T22:10:41.553Z</time>
      </trkpt>
      <trkpt lat="43.152271" lon="-4.822759">
        <ele>1548.031269</ele>
        <time>2025-09-03T22:11:23.531Z</time>
      </trkpt>
      <trkpt lat="43.152166" lon="-4.822917">
        <ele>1550.943440</ele>
        <time>2025-09-03T22:11:53.736Z</time>
      </trkpt>
      <trkpt lat="43.152169" lon="-4.822991">
        <ele>1551.953299</ele>
        <time>2025-09-03T22:12:04.643Z</time>
      </trkpt>
      <trkpt lat="43.152182" lon="-4.823021">
        <ele>1552.428744</ele>
        <time>2025-09-03T22:12:10.234Z</time>
      </trkpt>
      <trkpt lat="43.152293" lon="-4.822949">
        <ele>1554.722316</ele>
        <time>2025-09-03T22:12:37.662Z</time>
      </trkpt>
      <trkpt lat="43.152335" lon="-4.822981">
        <ele>1555.619791</ele>
        <time>2025-09-03T22:12:49.124Z</time>
      </trkpt>
      <trkpt lat="43.152313" lon="-4.823097">
        <ele>1557.252908</ele>
        <time>2025-09-03T22:13:10.050Z</time>
      </trkpt>
      <trkpt lat="43.152327" lon="-4.823284">
        <ele>1559.814295</ele>
        <time>2025-09-03T22:13:46.169Z</time>
      </trkpt>
      <trkpt lat="43.152129" lon="-4.823437">
        <ele>1564.059514</ele>
        <time>2025-09-03T22:14:52.371Z</time>
      </trkpt>
      <trkpt lat="43.152047" lon="-4.823643">
        <ele>1567.257058</ele>
        <time>2025-09-03T22:15:44.198Z</time>
      </trkpt>
      <trkpt lat="43.152019" lon="-4.823956">
        <ele>1571.553863</ele>
        <time>2025-09-03T22:16:52.132Z</time>
      </trkpt>
      <trkpt lat="43.152061" lon="-4.824382">
        <ele>1580.806100</ele>
        <time>2025-09-03T22:18:25.812Z</time>
      </trkpt>
      <trkpt lat="43.152092" lon="-4.824368">
        <ele>1581.769682</ele>
        <time>2025-09-03T22:18:35.932Z</time>
      </trkpt>
      <trkpt lat="43.152266" lon="-4.824002">
        <ele>1591.178493</ele>
        <time>2025-09-03T22:20:13.251Z</time>
      </trkpt>
      <trkpt lat="43.152338" lon="-4.823930">
        <ele>1593.809630</ele>
        <time>2025-09-03T22:20:40.558Z</time>
      </trkpt>
      <trkpt lat="43.152398" lon="-4.823930">
        <ele>1595.580965</ele>
        <time>2025-09-03T22:20:59.220Z</time>
      </trkpt>
      <trkpt lat="43.152532" lon="-4.823865">
        <ele>1599.777348</ele>
        <time>2025-09-03T22:21:43.340Z</time>
      </trkpt>
      <trkpt lat="43.152596" lon="-4.823889">
        <ele>1601.736202</ele>
        <time>2025-09-03T22:22:04.735Z</time>
      </trkpt>
      <trkpt lat="43.152520" lon="-4.823984">
        <ele>1604.772735</ele>
        <time>2025-09-03T22:22:38.407Z</time>
      </trkpt>
      <trkpt lat="43.152506" lon="-4.824076">
        <ele>1606.796836</ele>
        <time>2025-09-03T22:23:01.077Z</time>
      </trkpt>
      <trkpt lat="43.152449" lon="-4.824141">
        <ele>1608.985795</ele>
        <time>2025-09-03T22:23:25.683Z</time>
      </trkpt>
      <trkpt lat="43.152490" lon="-4.824196">
        <ele>1610.679399</ele>
        <time>2025-09-03T22:23:44.647Z</time>
      </trkpt>
      <trkpt lat="43.152395" lon="-4.824313">
        <ele>1614.449775</ele>
        <time>2025-09-03T22:24:27.905Z</time>
      </trkpt>
      <trkpt lat="43.152348" lon="-4.824416">
        <ele>1617.066348</ele>
        <time>2025-09-03T22:24:57.653Z</time>
      </trkpt>
      <trkpt lat="43.152358" lon="-4.824740">
        <ele>1624.050771</ele>
        <time>2025-09-03T22:26:15.733Z</time>
      </trkpt>
      <trkpt lat="43.152329" lon="-4.825038">
        <ele>1631.613115</ele>
        <time>2025-09-03T22:27:26.931Z</time>
      </trkpt>
      <trkpt lat="43.152214" lon="-4.825594">
        <ele>1646.368972</ele>
        <time>2025-09-03T22:29:46.177Z</time>
      </trkpt>
      <trkpt lat="43.152245" lon="-4.825611">
        <ele>1647.537540</ele>
        <time>2025-09-03T22:29:57.305Z</time>
      </trkpt>
      <trkpt lat="43.152274" lon="-4.825592">
        <ele>1648.662485</ele>
        <time>2025-09-03T22:30:08.165Z</time>
      </trkpt>
      <trkpt lat="43.152532" lon="-4.825221">
        <ele>1661.749407</ele>
        <time>2025-09-03T22:32:16.117Z</time>
      </trkpt>
      <trkpt lat="43.152593" lon="-4.825064">
        <ele>1666.291129</ele>
        <time>2025-09-03T22:33:03.768Z</time>
      </trkpt>
      <trkpt lat="43.152615" lon="-4.825076">
        <ele>1667.119824</ele>
        <time>2025-09-03T22:33:12.811Z</time>
      </trkpt>
      <trkpt lat="43.152620" lon="-4.825175">
        <ele>1669.653624</ele>
        <time>2025-09-03T22:33:39.787Z</time>
      </trkpt>
      <trkpt lat="43.152565" lon="-4.825402">
        <ele>1675.760869</ele>
        <time>2025-09-03T22:34:46.542Z</time>
      </trkpt>
      <trkpt lat="43.152538" lon="-4.825737">
        <ele>1684.366415</ele>
        <time>2025-09-03T22:36:21.523Z</time>
      </trkpt>
      <trkpt lat="43.152541" lon="-4.826057">
        <ele>1692.332119</ele>
        <time>2025-09-03T22:37:52.058Z</time>
      </trkpt>
      <trkpt lat="43.152491" lon="-4.826239">
        <ele>1697.090399</ele>
        <time>2025-09-03T22:38:46.789Z</time>
      </trkpt>
      <trkpt lat="43.152493" lon="-4.826352">
        <ele>1699.855991</ele>
        <time>2025-09-03T22:39:18.167Z</time>
      </trkpt>
      <trkpt lat="43.152559" lon="-4.826318">
        <ele>1702.220648</ele>
        <time>2025-09-03T22:39:44.592Z</time>
      </trkpt>
      <trkpt lat="43.152622" lon="-4.826209">
        <ele>1705.623099</ele>
        <time>2025-09-03T22:40:22.326Z</time>
      </trkpt>
      <trkpt lat="43.152792" lon="-4.825774">
        <ele>1717.697153</ele>
        <time>2025-09-03T22:42:28.836Z</time>
      </trkpt>
      <trkpt lat="43.152807" lon="-4.825788">
        <ele>1718.305765</ele>
        <time>2025-09-03T22:42:34.925Z</time>
      </trkpt>
      <trkpt lat="43.152796" lon="-4.826346">
        <ele>1731.963306</ele>
        <time>2025-09-03T22:44:48.425Z</time>
      </trkpt>
      <trkpt lat="43.152762" lon="-4.826537">
        <ele>1736.773602</ele>
        <time>2025-09-03T22:45:34.226Z</time>
      </trkpt>
      <trkpt lat="43.152736" lon="-4.826979">
        <ele>1747.623100</ele>
        <time>2025-09-03T22:47:13.409Z</time>
      </trkpt>
      <trkpt lat="43.152733" lon="-4.827032">
        <ele>1748.792044</ele>
        <time>2025-09-03T22:47:25.066Z</time>
      </trkpt>
      <trkpt lat="43.152689" lon="-4.827148">
        <ele>1751.563712</ele>
        <time>2025-09-03T22:47:53.702Z</time>
      </trkpt>
      <trkpt lat="43.152541" lon="-4.827235">
        <ele>1756.243223</ele>
        <time>2025-09-03T22:48:42.093Z</time>
      </trkpt>
      <trkpt lat="43.152465" lon="-4.827401">
        <ele>1760.397928</ele>
        <time>2025-09-03T22:49:24.566Z</time>
      </trkpt>
      <trkpt lat="43.152317" lon="-4.828235">
        <ele>1778.593910</ele>
        <time>2025-09-03T22:52:31.846Z</time>
      </trkpt>
      <trkpt lat="43.152351" lon="-4.828365">
        <ele>1781.521602</ele>
        <time>2025-09-03T22:53:03.786Z</time>
      </trkpt>
      <trkpt lat="43.152387" lon="-4.828357">
        <ele>1782.581381</ele>
        <time>2025-09-03T22:53:15.129Z</time>
      </trkpt>
      <trkpt lat="43.152454" lon="-4.828251">
        <ele>1785.554644</ele>
        <time>2025-09-03T22:53:48.057Z</time>
      </trkpt>
      <trkpt lat="43.152490" lon="-4.828195">
        <ele>1787.136969</ele>
        <time>2025-09-03T22:54:05.820Z</time>
      </trkpt>
      <trkpt lat="43.152999" lon="-4.827747">
        <ele>1804.854781</ele>
        <time>2025-09-03T22:57:26.299Z</time>
      </trkpt>
      <trkpt lat="43.153010" lon="-4.827781">
        <ele>1805.667765</ele>
        <time>2025-09-03T22:57:35.252Z</time>
      </trkpt>
      <trkpt lat="43.152954" lon="-4.828050">
        <ele>1811.782350</ele>
        <time>2025-09-03T22:58:42.878Z</time>
      </trkpt>
      <trkpt lat="43.152908" lon="-4.828438">
        <ele>1820.374622</ele>
        <time>2025-09-03T23:00:15.792Z</time>
      </trkpt>
      <trkpt lat="43.152884" lon="-4.828757">
        <ele>1827.384396</ele>
        <time>2025-09-03T23:01:29.282Z</time>
      </trkpt>
      <trkpt lat="43.152896" lon="-4.828935">
        <ele>1831.291749</ele>
        <time>2025-09-03T23:02:09.924Z</time>
      </trkpt>
      <trkpt lat="43.152934" lon="-4.828931">
        <ele>1832.433661</ele>
        <time>2025-09-03T23:02:21.955Z</time>
      </trkpt>
      <trkpt lat="43.153026" lon="-4.828684">
        <ele>1838.495629</ele>
        <time>2025-09-03T23:03:23.667Z</time>
      </trkpt>
      <trkpt lat="43.153089" lon="-4.828644">
        <ele>1840.575901</ele>
        <time>2025-09-03T23:03:44.791Z</time>
      </trkpt>
      <trkpt lat="43.153091" lon="-4.828676">
        <ele>1841.277926</ele>
        <time>2025-09-03T23:03:52.047Z</time>
      </trkpt>
      <trkpt lat="43.153067" lon="-4.829035">
        <ele>1849.157907</ele>
        <time>2025-09-03T23:05:12.822Z</time>
      </trkpt>
      <trkpt lat="43.153012" lon="-4.829289">
        <ele>1855.033297</ele>
        <time>2025-09-03T23:06:13.489Z</time>
      </trkpt>
      <trkpt lat="43.152981" lon="-4.829663">
        <ele>1864.070125</ele>
        <time>2025-09-03T23:07:41.122Z</time>
      </trkpt>
      <trkpt lat="43.152955" lon="-4.829749">
        <ele>1866.305101</ele>
        <time>2025-09-03T23:08:03.586Z</time>
      </trkpt>
      <trkpt lat="43.152960" lon="-4.829866">
        <ele>1869.118875</ele>
        <time>2025-09-03T23:08:31.583Z</time>
      </trkpt>
      <trkpt lat="43.152974" lon="-4.829967">
        <ele>1871.587085</ele>
        <time>2025-09-03T23:08:56.766Z</time>
      </trkpt>
      <trkpt lat="43.153015" lon="-4.830037">
        <ele>1873.742279</ele>
        <time>2025-09-03T23:09:18.896Z</time>
      </trkpt>
      <trkpt lat="43.153022" lon="-4.830194">
        <ele>1877.518595</ele>
        <time>2025-09-03T23:09:58.489Z</time>
      </trkpt>
      <trkpt lat="43.153064" lon="-4.830224">
        <ele>1879.077178</ele>
        <time>2025-09-03T23:10:14.912Z</time>
      </trkpt>
      <trkpt lat="43.153107" lon="-4.830212">
        <ele>1880.521298</ele>
        <time>2025-09-03T23:10:30.526Z</time>
      </trkpt>
      <trkpt lat="43.153143" lon="-4.830016">
        <ele>1885.373739</ele>
        <time>2025-09-03T23:11:22.970Z</time>
      </trkpt>
      <trkpt lat="43.153178" lon="-4.829989">
        <ele>1886.695433</ele>
        <time>2025-09-03T23:11:37.474Z</time>
      </trkpt>
      <trkpt lat="43.153243" lon="-4.830376">
        <ele>1896.229627</ele>
        <time>2025-09-03T23:13:22.209Z</time>
      </trkpt>
      <trkpt lat="43.153232" lon="-4.830894">
        <ele>1908.671082</ele>
        <time>2025-09-03T23:15:38.897Z</time>
      </trkpt>
      <trkpt lat="43.153186" lon="-4.831156">
        <ele>1914.204688</ele>
        <time>2025-09-03T23:16:47.732Z</time>
      </trkpt>
      <trkpt lat="43.153113" lon="-4.831414">
        <ele>1917.493415</ele>
        <time>2025-09-03T23:17:54.851Z</time>
      </trkpt>
      <trkpt lat="43.153135" lon="-4.831618">
        <ele>1919.944189</ele>
        <time>2025-09-03T23:18:41.622Z</time>
      </trkpt>
      <trkpt lat="43.153044" lon="-4.832006">
        <ele>1924.787794</ele>
        <time>2025-09-03T23:20:05.106Z</time>
      </trkpt>
      <trkpt lat="43.152965" lon="-4.832204">
        <ele>1927.469856</ele>
        <time>2025-09-03T23:20:45.509Z</time>
      </trkpt>
      <trkpt lat="43.152934" lon="-4.832354">
        <ele>1929.322679</ele>
        <time>2025-09-03T23:21:10.690Z</time>
      </trkpt>
      <trkpt lat="43.152984" lon="-4.832715">
        <ele>1933.689613</ele>
        <time>2025-09-03T23:21:59.142Z</time>
      </trkpt>
      <trkpt lat="43.153119" lon="-4.832957">
        <ele>1937.310140</ele>
        <time>2025-09-03T23:22:33.153Z</time>
      </trkpt>
      <trkpt lat="43.153161" lon="-4.833317">
        <ele>1941.642904</ele>
        <time>2025-09-03T23:23:07.981Z</time>
      </trkpt>
      <trkpt lat="43.153150" lon="-4.833394">
        <ele>1942.575386</ele>
        <time>2025-09-03T23:23:15.428Z</time>
      </trkpt>
      <trkpt lat="43.153127" lon="-4.833477">
        <ele>1942.032005</ele>
        <time>2025-09-03T23:23:24.098Z</time>
      </trkpt>
      <trkpt lat="43.153033" lon="-4.833568">
        <ele>1941.032216</ele>
        <time>2025-09-03T23:23:39.779Z</time>
      </trkpt>
      <trkpt lat="43.152966" lon="-4.833786">
        <ele>1939.532921</ele>
        <time>2025-09-03T23:24:04.194Z</time>
      </trkpt>
      <trkpt lat="43.152684" lon="-4.834287">
        <ele>1935.522279</ele>
        <time>2025-09-03T23:25:13.243Z</time>
      </trkpt>
      <trkpt lat="43.152685" lon="-4.834301">
        <ele>1935.433122</ele>
        <time>2025-09-03T23:25:14.852Z</time>
      </trkpt>
      <trkpt lat="43.152698" lon="-4.834622">
        <ele>1933.395473</ele>
        <time>2025-09-03T23:25:50.987Z</time>
      </trkpt>
      <trkpt lat="43.152603" lon="-4.834987">
        <ele>1930.939261</ele>
        <time>2025-09-03T23:26:34.990Z</time>
      </trkpt>
      <trkpt lat="43.152610" lon="-4.835025">
        <ele>1930.690855</ele>
        <time>2025-09-03T23:26:39.444Z</time>
      </trkpt>
      <trkpt lat="43.152712" lon="-4.835145">
        <ele>1929.523063</ele>
        <time>2025-09-03T23:27:00.228Z</time>
      </trkpt>
      <trkpt lat="43.152768" lon="-4.835279">
        <ele>1928.544284</ele>
        <time>2025-09-03T23:27:17.547Z</time>
      </trkpt>
      <trkpt lat="43.152804" lon="-4.835673">
        <ele>1926.117519</ele>
        <time>2025-09-03T23:28:01.991Z</time>
      </trkpt>
      <trkpt lat="43.152773" lon="-4.835892">
        <ele>1924.839728</ele>
        <time>2025-09-03T23:28:26.654Z</time>
      </trkpt>
      <trkpt lat="43.152726" lon="-4.835981">
        <ele>1924.210407</ele>
        <time>2025-09-03T23:28:38.863Z</time>
      </trkpt>
      <trkpt lat="43.152733" lon="-4.836222">
        <ele>1922.828903</ele>
        <time>2025-09-03T23:29:05.263Z</time>
      </trkpt>
      <trkpt lat="43.152800" lon="-4.836461">
        <ele>1921.362359</ele>
        <time>2025-09-03T23:29:32.886Z</time>
      </trkpt>
      <trkpt lat="43.152877" lon="-4.836604">
        <ele>1920.344331</ele>
        <time>2025-09-03T23:29:52.012Z</time>
      </trkpt>
      <trkpt lat="43.152876" lon="-4.836807">
        <ele>1919.181556</ele>
        <time>2025-09-03T23:30:13.520Z</time>
      </trkpt>
      <trkpt lat="43.152966" lon="-4.837102">
        <ele>1917.350045</ele>
        <time>2025-09-03T23:30:46.769Z</time>
      </trkpt>
      <trkpt lat="43.153556" lon="-4.837593">
        <ele>1912.625901</ele>
        <time>2025-09-03T23:32:21.835Z</time>
      </trkpt>
      <trkpt lat="43.153709" lon="-4.838103">
        <ele>1911.882401</ele>
        <time>2025-09-03T23:33:15.363Z</time>
      </trkpt>
      <trkpt lat="43.153991" lon="-4.838712">
        <ele>1910.909851</ele>
        <time>2025-09-03T23:34:22.791Z</time>
      </trkpt>
      <trkpt lat="43.154231" lon="-4.839128">
        <ele>1910.194771</ele>
        <time>2025-09-03T23:35:11.763Z</time>
      </trkpt>
      <trkpt lat="43.154263" lon="-4.839226">
        <ele>1910.050008</ele>
        <time>2025-09-03T23:35:21.689Z</time>
      </trkpt>
      <trkpt lat="43.154310" lon="-4.839367">
        <ele>1909.840995</ele>
        <time>2025-09-03T23:35:35.985Z</time>
      </trkpt>
      <trkpt lat="43.154495" lon="-4.839665">
        <ele>1909.780188</ele>
        <time>2025-09-03T23:36:11.982Z</time>
      </trkpt>
      <trkpt lat="43.154731" lon="-4.839940">
        <ele>1910.528964</ele>
        <time>2025-09-03T23:36:51.427Z</time>
      </trkpt>
      <trkpt lat="43.154899" lon="-4.840325">
        <ele>1911.320105</ele>
        <time>2025-09-03T23:37:32.920Z</time>
      </trkpt>
      <trkpt lat="43.155066" lon="-4.840913">
        <ele>1912.432856</ele>
        <time>2025-09-03T23:38:33.244Z</time>
      </trkpt>
      <trkpt lat="43.155217" lon="-4.841221">
        <ele>1913.087273</ele>
        <time>2025-09-03T23:39:11.413Z</time>
      </trkpt>
      <trkpt lat="43.155335" lon="-4.841375">
        <ele>1913.481129</ele>
        <time>2025-09-03T23:39:35.688Z</time>
      </trkpt>
      <trkpt lat="43.155353" lon="-4.841515">
        <ele>1913.731822</ele>
        <time>2025-09-03T23:39:51.708Z</time>
      </trkpt>
      <trkpt lat="43.155327" lon="-4.841664">
        <ele>1914.444261</ele>
        <time>2025-09-03T23:40:09.321Z</time>
      </trkpt>
      <trkpt lat="43.155358" lon="-4.841849">
        <ele>1915.849305</ele>
        <time>2025-09-03T23:40:31.836Z</time>
      </trkpt>
      <trkpt lat="43.155378" lon="-4.841949">
        <ele>1916.616826</ele>
        <time>2025-09-03T23:40:44.338Z</time>
      </trkpt>
      <trkpt lat="43.155475" lon="-4.842163">
        <ele>1918.481738</ele>
        <time>2025-09-03T23:41:15.314Z</time>
      </trkpt>
      <trkpt lat="43.156016" lon="-4.843112">
        <ele>1927.396737</ele>
        <time>2025-09-03T23:44:05.904Z</time>
      </trkpt>
      <trkpt lat="43.156082" lon="-4.843165">
        <ele>1928.172869</ele>
        <time>2025-09-03T23:44:21.376Z</time>
      </trkpt>
      <trkpt lat="43.156106" lon="-4.843240">
        <ele>1928.779080</ele>
        <time>2025-09-03T23:44:33.317Z</time>
      </trkpt>
      <trkpt lat="43.156189" lon="-4.843351">
        <ele>1929.955653</ele>
        <time>2025-09-03T23:44:53.968Z</time>
      </trkpt>
      <trkpt lat="43.156327" lon="-4.843509">
        <ele>1931.780058</ele>
        <time>2025-09-03T23:45:23.270Z</time>
      </trkpt>
      <trkpt lat="43.156395" lon="-4.843543">
        <ele>1931.900894</ele>
        <time>2025-09-03T23:45:33.920Z</time>
      </trkpt>
      <trkpt lat="43.156446" lon="-4.843656">
        <ele>1931.377386</ele>
        <time>2025-09-03T23:45:48.384Z</time>
      </trkpt>
      <trkpt lat="43.156585" lon="-4.843759">
        <ele>1930.524031</ele>
        <time>2025-09-03T23:46:10.289Z</time>
      </trkpt>
      <trkpt lat="43.156633" lon="-4.843886">
        <ele>1929.960517</ele>
        <time>2025-09-03T23:46:23.874Z</time>
      </trkpt>
      <trkpt lat="43.156691" lon="-4.844165">
        <ele>1928.817569</ele>
        <time>2025-09-03T23:46:51.127Z</time>
      </trkpt>
      <trkpt lat="43.156780" lon="-4.844286">
        <ele>1928.140601</ele>
        <time>2025-09-03T23:47:08.002Z</time>
      </trkpt>
      <trkpt lat="43.156622" lon="-4.844223">
        <ele>1927.251926</ele>
        <time>2025-09-03T23:47:31.074Z</time>
      </trkpt>
      <trkpt lat="43.156431" lon="-4.844245">
        <ele>1926.216758</ele>
        <time>2025-09-03T23:47:58.858Z</time>
      </trkpt>
      <trkpt lat="43.156294" lon="-4.844302">
        <ele>1925.443534</ele>
        <time>2025-09-03T23:48:20.194Z</time>
      </trkpt>
      <trkpt lat="43.156281" lon="-4.844358">
        <ele>1925.212006</ele>
        <time>2025-09-03T23:48:26.579Z</time>
      </trkpt>
      <trkpt lat="43.156333" lon="-4.844497">
        <ele>1924.596568</ele>
        <time>2025-09-03T23:48:44.146Z</time>
      </trkpt>
      <trkpt lat="43.156281" lon="-4.844683">
        <ele>1923.811803</ele>
        <time>2025-09-03T23:49:07.055Z</time>
      </trkpt>
      <trkpt lat="43.156295" lon="-4.844776">
        <ele>1923.437685</ele>
        <time>2025-09-03T23:49:18.204Z</time>
      </trkpt>
      <trkpt lat="43.156258" lon="-4.844873">
        <ele>1923.006438</ele>
        <time>2025-09-03T23:49:31.121Z</time>
      </trkpt>
      <trkpt lat="43.156278" lon="-4.844971">
        <ele>1922.605517</ele>
        <time>2025-09-03T23:49:43.321Z</time>
      </trkpt>
      <trkpt lat="43.156267" lon="-4.845058">
        <ele>1922.057745</ele>
        <time>2025-09-03T23:49:53.934Z</time>
      </trkpt>
      <trkpt lat="43.156220" lon="-4.845084">
        <ele>1921.399950</ele>
        <time>2025-09-03T23:50:02.804Z</time>
      </trkpt>
      <trkpt lat="43.156154" lon="-4.845055">
        <ele>1920.500427</ele>
        <time>2025-09-03T23:50:14.736Z</time>
      </trkpt>
      <trkpt lat="43.156072" lon="-4.845067">
        <ele>1919.430127</ele>
        <time>2025-09-03T23:50:28.699Z</time>
      </trkpt>
      <trkpt lat="43.155991" lon="-4.845171">
        <ele>1917.989734</ele>
        <time>2025-09-03T23:50:46.977Z</time>
      </trkpt>
      <trkpt lat="43.155860" lon="-4.845275">
        <ele>1916.024978</ele>
        <time>2025-09-03T23:51:11.462Z</time>
      </trkpt>
      <trkpt lat="43.155788" lon="-4.845382">
        <ele>1914.646743</ele>
        <time>2025-09-03T23:51:28.389Z</time>
      </trkpt>
      <trkpt lat="43.155765" lon="-4.845604">
        <ele>1912.523774</ele>
        <time>2025-09-03T23:51:54.421Z</time>
      </trkpt>
      <trkpt lat="43.155704" lon="-4.845757">
        <ele>1910.872953</ele>
        <time>2025-09-03T23:52:14.413Z</time>
      </trkpt>
      <trkpt lat="43.155505" lon="-4.845850">
        <ele>1908.144224</ele>
        <time>2025-09-03T23:52:47.039Z</time>
      </trkpt>
      <trkpt lat="43.155348" lon="-4.846034">
        <ele>1905.463370</ele>
        <time>2025-09-03T23:53:18.870Z</time>
      </trkpt>
      <trkpt lat="43.155183" lon="-4.846254">
        <ele>1902.475951</ele>
        <time>2025-09-03T23:53:53.998Z</time>
      </trkpt>
      <trkpt lat="43.155144" lon="-4.846365">
        <ele>1901.309460</ele>
        <time>2025-09-03T23:54:07.620Z</time>
      </trkpt>
      <trkpt lat="43.155104" lon="-4.846395">
        <ele>1900.717688</ele>
        <time>2025-09-03T23:54:14.645Z</time>
      </trkpt>
      <trkpt lat="43.155011" lon="-4.846289">
        <ele>1899.147934</ele>
        <time>2025-09-03T23:54:32.905Z</time>
      </trkpt>
      <trkpt lat="43.154931" lon="-4.846316">
        <ele>1898.431655</ele>
        <time>2025-09-03T23:54:45.217Z</time>
      </trkpt>
      <trkpt lat="43.154665" lon="-4.846639">
        <ele>1895.485339</ele>
        <time>2025-09-03T23:55:38.026Z</time>
      </trkpt>
      <trkpt lat="43.154511" lon="-4.846701">
        <ele>1894.154569</ele>
        <time>2025-09-03T23:56:01.713Z</time>
      </trkpt>
      <trkpt lat="43.154313" lon="-4.846884">
        <ele>1892.174622</ele>
        <time>2025-09-03T23:56:36.506Z</time>
      </trkpt>
      <trkpt lat="43.154202" lon="-4.846921">
        <ele>1891.227484</ele>
        <time>2025-09-03T23:56:53.081Z</time>
      </trkpt>
      <trkpt lat="43.154137" lon="-4.847007">
        <ele>1890.478470</ele>
        <time>2025-09-03T23:57:06.061Z</time>
      </trkpt>
      <trkpt lat="43.154059" lon="-4.847036">
        <ele>1889.808394</ele>
        <time>2025-09-03T23:57:17.669Z</time>
      </trkpt>
      <trkpt lat="43.153743" lon="-4.847287">
        <ele>1886.780303</ele>
        <time>2025-09-03T23:58:10.027Z</time>
      </trkpt>
      <trkpt lat="43.153444" lon="-4.847595">
        <ele>1883.885527</ele>
        <time>2025-09-03T23:59:03.296Z</time>
      </trkpt>
      <trkpt lat="43.153086" lon="-4.848062">
        <ele>1881.609567</ele>
        <time>2025-09-04T00:00:13.311Z</time>
      </trkpt>
      <trkpt lat="43.152942" lon="-4.848274">
        <ele>1880.636369</ele>
        <time>2025-09-04T00:00:43.056Z</time>
      </trkpt>
      <trkpt lat="43.152395" lon="-4.849080">
        <ele>1876.937848</ele>
        <time>2025-09-04T00:02:33.932Z</time>
      </trkpt>
      <trkpt lat="43.152087" lon="-4.849336">
        <ele>1877.228399</ele>
        <time>2025-09-04T00:03:20.297Z</time>
      </trkpt>
      <trkpt lat="43.152062" lon="-4.849382">
        <ele>1877.682468</ele>
        <time>2025-09-04T00:03:25.588Z</time>
      </trkpt>
      <trkpt lat="43.152007" lon="-4.849406">
        <ele>1878.308762</ele>
        <time>2025-09-04T00:03:33.117Z</time>
      </trkpt>
      <trkpt lat="43.151948" lon="-4.849527">
        <ele>1879.460839</ele>
        <time>2025-09-04T00:03:47.231Z</time>
      </trkpt>
      <trkpt lat="43.151736" lon="-4.849626">
        <ele>1881.890998</ele>
        <time>2025-09-04T00:04:18.752Z</time>
      </trkpt>
      <trkpt lat="43.151697" lon="-4.849684">
        <ele>1882.515398</ele>
        <time>2025-09-04T00:04:27.137Z</time>
      </trkpt>
      <trkpt lat="43.151627" lon="-4.849801">
        <ele>1883.713189</ele>
        <time>2025-09-04T00:04:44.035Z</time>
      </trkpt>
      <trkpt lat="43.151438" lon="-4.849974">
        <ele>1886.179176</ele>
        <time>2025-09-04T00:05:21.456Z</time>
      </trkpt>
      <trkpt lat="43.151333" lon="-4.850193">
        <ele>1888.253654</ele>
        <time>2025-09-04T00:05:57.549Z</time>
      </trkpt>
      <trkpt lat="43.151201" lon="-4.850255">
        <ele>1889.767691</ele>
        <time>2025-09-04T00:06:26.842Z</time>
      </trkpt>
      <trkpt lat="43.151121" lon="-4.850371">
        <ele>1891.031304</ele>
        <time>2025-09-04T00:06:53.223Z</time>
      </trkpt>
      <trkpt lat="43.151046" lon="-4.850425">
        <ele>1891.950539</ele>
        <time>2025-09-04T00:07:13.531Z</time>
      </trkpt>
      <trkpt lat="43.150991" lon="-4.850523">
        <ele>1892.929305</ele>
        <time>2025-09-04T00:07:35.717Z</time>
      </trkpt>
      <trkpt lat="43.150874" lon="-4.850526">
        <ele>1894.199048</ele>
        <time>2025-09-04T00:08:05.667Z</time>
      </trkpt>
      <trkpt lat="43.150822" lon="-4.850599">
        <ele>1895.006698</ele>
        <time>2025-09-04T00:08:25.533Z</time>
      </trkpt>
      <trkpt lat="43.150789" lon="-4.850725">
        <ele>1897.158049</ele>
        <time>2025-09-04T00:08:51.939Z</time>
      </trkpt>
      <trkpt lat="43.150692" lon="-4.850806">
        <ele>1900.339604</ele>
        <time>2025-09-04T00:09:24.026Z</time>
      </trkpt>
      <trkpt lat="43.150608" lon="-4.850988">
        <ele>1904.740640</ele>
        <time>2025-09-04T00:10:09.552Z</time>
      </trkpt>
      <trkpt lat="43.150483" lon="-4.851043">
        <ele>1908.417969</ele>
        <time>2025-09-04T00:10:49.052Z</time>
      </trkpt>
      <trkpt lat="43.150194" lon="-4.851407">
        <ele>1919.411757</ele>
        <time>2025-09-04T00:12:51.212Z</time>
      </trkpt>
      <trkpt lat="43.150038" lon="-4.851467">
        <ele>1923.950215</ele>
        <time>2025-09-04T00:13:43.568Z</time>
      </trkpt>
      <trkpt lat="43.149981" lon="-4.851401">
        <ele>1926.040272</ele>
        <time>2025-09-04T00:14:08.142Z</time>
      </trkpt>
      <trkpt lat="43.150004" lon="-4.851344">
        <ele>1927.371400</ele>
        <time>2025-09-04T00:14:23.880Z</time>
      </trkpt>
      <trkpt lat="43.149986" lon="-4.851132">
        <ele>1931.733017</ele>
        <time>2025-09-04T00:15:15.217Z</time>
      </trkpt>
      <trkpt lat="43.149861" lon="-4.850981">
        <ele>1936.400097</ele>
        <time>2025-09-04T00:16:09.380Z</time>
      </trkpt>
      <trkpt lat="43.149860" lon="-4.850913">
        <ele>1937.790012</ele>
        <time>2025-09-04T00:16:24.949Z</time>
      </trkpt>
      <trkpt lat="43.149807" lon="-4.850876">
        <ele>1939.456051</ele>
        <time>2025-09-04T00:16:43.537Z</time>
      </trkpt>
      <trkpt lat="43.149730" lon="-4.850969">
        <ele>1942.330759</ele>
        <time>2025-09-04T00:17:15.294Z</time>
      </trkpt>
      <trkpt lat="43.149588" lon="-4.850988">
        <ele>1946.305505</ele>
        <time>2025-09-04T00:17:59.964Z</time>
      </trkpt>
      <trkpt lat="43.149510" lon="-4.851047">
        <ele>1948.705886</ele>
        <time>2025-09-04T00:18:28.347Z</time>
      </trkpt>
      <trkpt lat="43.149483" lon="-4.851114">
        <ele>1950.210485</ele>
        <time>2025-09-04T00:18:46.042Z</time>
      </trkpt>
      <trkpt lat="43.149452" lon="-4.851066">
        <ele>1951.470619</ele>
        <time>2025-09-04T00:19:00.796Z</time>
      </trkpt>
      <trkpt lat="43.149367" lon="-4.851064">
        <ele>1953.761165</ele>
        <time>2025-09-04T00:19:28.457Z</time>
      </trkpt>
      <trkpt lat="43.149334" lon="-4.851162">
        <ele>1955.882879</ele>
        <time>2025-09-04T00:19:53.874Z</time>
      </trkpt>
      <trkpt lat="43.149302" lon="-4.851126">
        <ele>1956.998303</ele>
        <time>2025-09-04T00:20:07.768Z</time>
      </trkpt>
      <trkpt lat="43.149279" lon="-4.851136">
        <ele>1957.648437</ele>
        <time>2025-09-04T00:20:15.354Z</time>
      </trkpt>
      <trkpt lat="43.149218" lon="-4.851220">
        <ele>1959.978206</ele>
        <time>2025-09-04T00:20:42.890Z</time>
      </trkpt>
      <trkpt lat="43.149222" lon="-4.851287">
        <ele>1961.299655</ele>
        <time>2025-09-04T00:20:58.757Z</time>
      </trkpt>
      <trkpt lat="43.149196" lon="-4.851301">
        <ele>1962.052307</ele>
        <time>2025-09-04T00:21:07.388Z</time>
      </trkpt>
      <trkpt lat="43.149157" lon="-4.851307">
        <ele>1963.109707</ele>
        <time>2025-09-04T00:21:19.477Z</time>
      </trkpt>
      <trkpt lat="43.149128" lon="-4.851253">
        <ele>1964.427780</ele>
        <time>2025-09-04T00:21:34.900Z</time>
      </trkpt>
      <trkpt lat="43.149066" lon="-4.851324">
        <ele>1966.604591</ele>
        <time>2025-09-04T00:21:59.598Z</time>
      </trkpt>
      <trkpt lat="43.149032" lon="-4.851254">
        <ele>1968.257663</ele>
        <time>2025-09-04T00:22:18.395Z</time>
      </trkpt>
      <trkpt lat="43.148929" lon="-4.851322">
        <ele>1971.338002</ele>
        <time>2025-09-04T00:22:52.929Z</time>
      </trkpt>
      <trkpt lat="43.148926" lon="-4.851279">
        <ele>1972.187131</ele>
        <time>2025-09-04T00:23:02.308Z</time>
      </trkpt>
      <trkpt lat="43.148903" lon="-4.851266">
        <ele>1972.857457</ele>
        <time>2025-09-04T00:23:09.834Z</time>
      </trkpt>
      <trkpt lat="43.148799" lon="-4.851391">
        <ele>1976.584353</ele>
        <time>2025-09-04T00:23:50.833Z</time>
      </trkpt>
      <trkpt lat="43.148748" lon="-4.851372">
        <ele>1978.008333</ele>
        <time>2025-09-04T00:24:06.485Z</time>
      </trkpt>
      <trkpt lat="43.148700" lon="-4.851289">
        <ele>1980.090316</ele>
        <time>2025-09-04T00:24:28.919Z</time>
      </trkpt>
      <trkpt lat="43.148555" lon="-4.851460">
        <ele>1985.244211</ele>
        <time>2025-09-04T00:25:24.240Z</time>
      </trkpt>
      <trkpt lat="43.148474" lon="-4.851343">
        <ele>1988.414819</ele>
        <time>2025-09-04T00:25:57.441Z</time>
      </trkpt>
      <trkpt lat="43.148374" lon="-4.851433">
        <ele>1991.638113</ele>
        <time>2025-09-04T00:26:30.266Z</time>
      </trkpt>
      <trkpt lat="43.148338" lon="-4.851343">
        <ele>1993.655755</ele>
        <time>2025-09-04T00:26:50.715Z</time>
      </trkpt>
      <trkpt lat="43.148287" lon="-4.851316">
        <ele>1994.566712</ele>
        <time>2025-09-04T00:27:05.424Z</time>
      </trkpt>
      <trkpt lat="43.147461" lon="-4.851364">
        <ele>2003.069432</ele>
        <time>2025-09-04T00:30:26.281Z</time>
      </trkpt>
      <trkpt lat="43.147289" lon="-4.851340">
        <ele>2004.847528</ele>
        <time>2025-09-04T00:30:56.919Z</time>
      </trkpt>
      <trkpt lat="43.147223" lon="-4.851298">
        <ele>2005.595906</ele>
        <time>2025-09-04T00:31:09.055Z</time>
      </trkpt>
      <trkpt lat="43.147160" lon="-4.851457">
        <ele>2006.953570</ele>
        <time>2025-09-04T00:31:30.154Z</time>
      </trkpt>
      <trkpt lat="43.147135" lon="-4.851421">
        <ele>2007.326503</ele>
        <time>2025-09-04T00:31:35.737Z</time>
      </trkpt>
      <trkpt lat="43.146645" lon="-4.851558">
        <ele>2012.469745</ele>
        <time>2025-09-04T00:32:38.889Z</time>
      </trkpt>
      <trkpt lat="43.146306" lon="-4.851412">
        <ele>2006.073744</ele>
        <time>2025-09-04T00:33:33.772Z</time>
      </trkpt>
      <trkpt lat="43.146231" lon="-4.851143">
        <ele>2001.858738</ele>
        <time>2025-09-04T00:34:07.298Z</time>
      </trkpt>
      <trkpt lat="43.146038" lon="-4.851030">
        <ele>1997.648444</ele>
        <time>2025-09-04T00:34:43.760Z</time>
      </trkpt>
      <trkpt lat="43.145672" lon="-4.850634">
        <ele>1988.293907</ele>
        <time>2025-09-04T00:36:16.766Z</time>
      </trkpt>
      <trkpt lat="43.145623" lon="-4.850581">
        <ele>1987.041671</ele>
        <time>2025-09-04T00:36:30.603Z</time>
      </trkpt>
      <trkpt lat="43.145807" lon="-4.850536">
        <ele>1983.292100</ele>
        <time>2025-09-04T00:37:11.533Z</time>
      </trkpt>
      <trkpt lat="43.145807" lon="-4.850363">
        <ele>1980.759902</ele>
        <time>2025-09-04T00:37:40.522Z</time>
      </trkpt>
      <trkpt lat="43.145807" lon="-4.850193">
        <ele>1978.271615</ele>
        <time>2025-09-04T00:38:08.820Z</time>
      </trkpt>
      <trkpt lat="43.145683" lon="-4.850152">
        <ele>1974.906306</ele>
        <time>2025-09-04T00:38:38.358Z</time>
      </trkpt>
      <trkpt lat="43.145728" lon="-4.850046">
        <ele>1971.542034</ele>
        <time>2025-09-04T00:38:59.352Z</time>
      </trkpt>
      <trkpt lat="43.145570" lon="-4.849975">
        <ele>1965.290291</ele>
        <time>2025-09-04T00:39:38.359Z</time>
      </trkpt>
      <trkpt lat="43.145544" lon="-4.849899">
        <ele>1962.987599</ele>
        <time>2025-09-04T00:39:52.625Z</time>
      </trkpt>
      <trkpt lat="43.145597" lon="-4.849884">
        <ele>1960.952826</ele>
        <time>2025-09-04T00:40:05.009Z</time>
      </trkpt>
      <trkpt lat="43.145634" lon="-4.849813">
        <ele>1958.559309</ele>
        <time>2025-09-04T00:40:19.798Z</time>
      </trkpt>
      <trkpt lat="43.145619" lon="-4.849654">
        <ele>1954.161201</ele>
        <time>2025-09-04T00:40:46.496Z</time>
      </trkpt>
      <trkpt lat="43.145563" lon="-4.849628">
        <ele>1951.938146</ele>
        <time>2025-09-04T00:41:00.260Z</time>
      </trkpt>
      <trkpt lat="43.145593" lon="-4.849538">
        <ele>1949.223743</ele>
        <time>2025-09-04T00:41:17.378Z</time>
      </trkpt>
      <trkpt lat="43.145514" lon="-4.849496">
        <ele>1946.037809</ele>
        <time>2025-09-04T00:41:38.731Z</time>
      </trkpt>
      <trkpt lat="43.145567" lon="-4.849425">
        <ele>1943.251305</ele>
        <time>2025-09-04T00:41:57.987Z</time>
      </trkpt>
      <trkpt lat="43.145465" lon="-4.849376">
        <ele>1939.187485</ele>
        <time>2025-09-04T00:42:26.500Z</time>
      </trkpt>
      <trkpt lat="43.145303" lon="-4.849398">
        <ele>1933.066667</ele>
        <time>2025-09-04T00:43:10.782Z</time>
      </trkpt>
      <trkpt lat="43.145220" lon="-4.849342">
        <ele>1929.588341</ele>
        <time>2025-09-04T00:43:36.516Z</time>
      </trkpt>
      <trkpt lat="43.145243" lon="-4.849251">
        <ele>1926.946410</ele>
        <time>2025-09-04T00:43:56.099Z</time>
      </trkpt>
      <trkpt lat="43.145133" lon="-4.849300">
        <ele>1922.597592</ele>
        <time>2025-09-04T00:44:29.269Z</time>
      </trkpt>
      <trkpt lat="43.145054" lon="-4.849221">
        <ele>1918.920714</ele>
        <time>2025-09-04T00:44:58.279Z</time>
      </trkpt>
      <trkpt lat="43.145114" lon="-4.849165">
        <ele>1916.191385</ele>
        <time>2025-09-04T00:45:20.055Z</time>
      </trkpt>
      <trkpt lat="43.145099" lon="-4.849112">
        <ele>1914.631889</ele>
        <time>2025-09-04T00:45:32.542Z</time>
      </trkpt>
      <trkpt lat="43.144994" lon="-4.849108">
        <ele>1910.682500</ele>
        <time>2025-09-04T00:46:04.465Z</time>
      </trkpt>
      <trkpt lat="43.144986" lon="-4.848860">
        <ele>1902.180135</ele>
        <time>2025-09-04T00:47:00.282Z</time>
      </trkpt>
      <trkpt lat="43.144934" lon="-4.848848">
        <ele>1899.544176</ele>
        <time>2025-09-04T00:47:16.934Z</time>
      </trkpt>
      <trkpt lat="43.144904" lon="-4.848713">
        <ele>1894.397082</ele>
        <time>2025-09-04T00:47:49.128Z</time>
      </trkpt>
      <trkpt lat="43.144663" lon="-4.848701">
        <ele>1882.342052</ele>
        <time>2025-09-04T00:49:05.306Z</time>
      </trkpt>
      <trkpt lat="43.144591" lon="-4.848604">
        <ele>1877.295262</ele>
        <time>2025-09-04T00:49:37.434Z</time>
      </trkpt>
      <trkpt lat="43.144418" lon="-4.848683">
        <ele>1868.179977</ele>
        <time>2025-09-04T00:50:35.638Z</time>
      </trkpt>
      <trkpt lat="43.144418" lon="-4.848566">
        <ele>1863.912661</ele>
        <time>2025-09-04T00:51:02.814Z</time>
      </trkpt>
      <trkpt lat="43.144275" lon="-4.848705">
        <ele>1855.149110</ele>
        <time>2025-09-04T00:51:58.961Z</time>
      </trkpt>
      <trkpt lat="43.144226" lon="-4.848562">
        <ele>1849.386965</ele>
        <time>2025-09-04T00:52:36.129Z</time>
      </trkpt>
      <trkpt lat="43.144173" lon="-4.848604">
        <ele>1846.326622</ele>
        <time>2025-09-04T00:52:55.821Z</time>
      </trkpt>
      <trkpt lat="43.144116" lon="-4.848532">
        <ele>1842.451739</ele>
        <time>2025-09-04T00:53:20.872Z</time>
      </trkpt>
      <trkpt lat="43.144248" lon="-4.848223">
        <ele>1829.392075</ele>
        <time>2025-09-04T00:54:46.171Z</time>
      </trkpt>
      <trkpt lat="43.144139" lon="-4.848114">
        <ele>1822.647218</ele>
        <time>2025-09-04T00:55:29.539Z</time>
      </trkpt>
      <trkpt lat="43.144022" lon="-4.848050">
        <ele>1816.627790</ele>
        <time>2025-09-04T00:56:09.243Z</time>
      </trkpt>
      <trkpt lat="43.143732" lon="-4.848118">
        <ele>1803.407300</ele>
        <time>2025-09-04T00:57:40.049Z</time>
      </trkpt>
      <trkpt lat="43.143661" lon="-4.848310">
        <ele>1796.350001</ele>
        <time>2025-09-04T00:58:27.587Z</time>
      </trkpt>
      <trkpt lat="43.143476" lon="-4.848321">
        <ele>1788.029207</ele>
        <time>2025-09-04T00:59:22.712Z</time>
      </trkpt>
      <trkpt lat="43.143416" lon="-4.848498">
        <ele>1781.630277</ele>
        <time>2025-09-04T01:00:04.777Z</time>
      </trkpt>
      <trkpt lat="43.143307" lon="-4.848596">
        <ele>1775.772505</ele>
        <time>2025-09-04T01:00:42.912Z</time>
      </trkpt>
      <trkpt lat="43.143268" lon="-4.848749">
        <ele>1770.458849</ele>
        <time>2025-09-04T01:01:17.229Z</time>
      </trkpt>
      <trkpt lat="43.143225" lon="-4.848812">
        <ele>1767.630430</ele>
        <time>2025-09-04T01:01:31.963Z</time>
      </trkpt>
      <trkpt lat="43.143129" lon="-4.848889">
        <ele>1762.632231</ele>
        <time>2025-09-04T01:02:03.952Z</time>
      </trkpt>
      <trkpt lat="43.142928" lon="-4.848886">
        <ele>1753.599761</ele>
        <time>2025-09-04T01:03:01.979Z</time>
      </trkpt>
      <trkpt lat="43.142927" lon="-4.848808">
        <ele>1751.041994</ele>
        <time>2025-09-04T01:03:18.288Z</time>
      </trkpt>
      <trkpt lat="43.142876" lon="-4.848830">
        <ele>1748.639473</ele>
        <time>2025-09-04T01:03:33.396Z</time>
      </trkpt>
      <trkpt lat="43.142875" lon="-4.848791">
        <ele>1747.359996</ele>
        <time>2025-09-04T01:03:41.676Z</time>
      </trkpt>
      <trkpt lat="43.142837" lon="-4.848814">
        <ele>1745.493362</ele>
        <time>2025-09-04T01:03:53.130Z</time>
      </trkpt>
      <trkpt lat="43.142833" lon="-4.848733">
        <ele>1742.831550</ele>
        <time>2025-09-04T01:04:09.629Z</time>
      </trkpt>
      <trkpt lat="43.142758" lon="-4.848737">
        <ele>1739.458875</ele>
        <time>2025-09-04T01:04:30.416Z</time>
      </trkpt>
      <trkpt lat="43.142736" lon="-4.848675">
        <ele>1737.437477</ele>
        <time>2025-09-04T01:04:44.220Z</time>
      </trkpt>
      <trkpt lat="43.142751" lon="-4.848640">
        <ele>1736.401841</ele>
        <time>2025-09-04T01:04:52.337Z</time>
      </trkpt>
      <trkpt lat="43.142692" lon="-4.848596">
        <ele>1734.053112</ele>
        <time>2025-09-04T01:05:10.632Z</time>
      </trkpt>
      <trkpt lat="43.142659" lon="-4.848613">
        <ele>1732.820366</ele>
        <time>2025-09-04T01:05:19.890Z</time>
      </trkpt>
      <trkpt lat="43.142660" lon="-4.848564">
        <ele>1731.569691</ele>
        <time>2025-09-04T01:05:29.196Z</time>
      </trkpt>
      <trkpt lat="43.142561" lon="-4.848558">
        <ele>1728.104544</ele>
        <time>2025-09-04T01:05:55.276Z</time>
      </trkpt>
      <trkpt lat="43.142538" lon="-4.848509">
        <ele>1726.618009</ele>
        <time>2025-09-04T01:06:06.391Z</time>
      </trkpt>
      <trkpt lat="43.142391" lon="-4.848582">
        <ele>1721.150778</ele>
        <time>2025-09-04T01:06:47.370Z</time>
      </trkpt>
      <trkpt lat="43.142333" lon="-4.848457">
        <ele>1717.371277</ele>
        <time>2025-09-04T01:07:15.184Z</time>
      </trkpt>
      <trkpt lat="43.142167" lon="-4.848519">
        <ele>1711.355015</ele>
        <time>2025-09-04T01:07:59.201Z</time>
      </trkpt>
      <trkpt lat="43.142125" lon="-4.848451">
        <ele>1709.081916</ele>
        <time>2025-09-04T01:08:16.205Z</time>
      </trkpt>
      <trkpt lat="43.142095" lon="-4.848441">
        <ele>1708.002315</ele>
        <time>2025-09-04T01:08:23.861Z</time>
      </trkpt>
      <trkpt lat="43.142075" lon="-4.848474">
        <ele>1706.907783</ele>
        <time>2025-09-04T01:08:31.820Z</time>
      </trkpt>
      <trkpt lat="43.142052" lon="-4.848453">
        <ele>1705.941400</ele>
        <time>2025-09-04T01:08:38.756Z</time>
      </trkpt>
      <trkpt lat="43.142006" lon="-4.848375">
        <ele>1703.382531</ele>
        <time>2025-09-04T01:08:57.399Z</time>
      </trkpt>
      <trkpt lat="43.141958" lon="-4.848409">
        <ele>1701.493176</ele>
        <time>2025-09-04T01:09:10.675Z</time>
      </trkpt>
      <trkpt lat="43.141912" lon="-4.848352">
        <ele>1699.324699</ele>
        <time>2025-09-04T01:09:25.970Z</time>
      </trkpt>
      <trkpt lat="43.141877" lon="-4.848358">
        <ele>1698.091306</ele>
        <time>2025-09-04T01:09:34.783Z</time>
      </trkpt>
      <trkpt lat="43.141846" lon="-4.848292">
        <ele>1696.088631</ele>
        <time>2025-09-04T01:09:48.601Z</time>
      </trkpt>
      <trkpt lat="43.141818" lon="-4.848291">
        <ele>1695.109214</ele>
        <time>2025-09-04T01:09:55.271Z</time>
      </trkpt>
      <trkpt lat="43.141781" lon="-4.848236">
        <ele>1693.200519</ele>
        <time>2025-09-04T01:10:08.412Z</time>
      </trkpt>
      <trkpt lat="43.141722" lon="-4.848230">
        <ele>1691.131776</ele>
        <time>2025-09-04T01:10:22.837Z</time>
      </trkpt>
      <trkpt lat="43.141643" lon="-4.848117">
        <ele>1687.138859</ele>
        <time>2025-09-04T01:10:50.361Z</time>
      </trkpt>
      <trkpt lat="43.141581" lon="-4.848111">
        <ele>1684.965488</ele>
        <time>2025-09-04T01:11:05.377Z</time>
      </trkpt>
      <trkpt lat="43.141492" lon="-4.848013">
        <ele>1680.973345</ele>
        <time>2025-09-04T01:11:32.298Z</time>
      </trkpt>
      <trkpt lat="43.141375" lon="-4.847943">
        <ele>1676.509315</ele>
        <time>2025-09-04T01:12:02.063Z</time>
      </trkpt>
      <trkpt lat="43.141264" lon="-4.848069">
        <ele>1672.467039</ele>
        <time>2025-09-04T01:12:35.125Z</time>
      </trkpt>
      <trkpt lat="43.141205" lon="-4.848085">
        <ele>1670.900151</ele>
        <time>2025-09-04T01:12:48.959Z</time>
      </trkpt>
      <trkpt lat="43.141118" lon="-4.848063">
        <ele>1668.595342</ele>
        <time>2025-09-04T01:13:08.720Z</time>
      </trkpt>
      <trkpt lat="43.140907" lon="-4.847801">
        <ele>1661.177593</ele>
        <time>2025-09-04T01:14:11.380Z</time>
      </trkpt>
      <trkpt lat="43.140897" lon="-4.847689">
        <ele>1659.032629</ele>
        <time>2025-09-04T01:14:29.485Z</time>
      </trkpt>
      <trkpt lat="43.140901" lon="-4.847439">
        <ele>1654.279067</ele>
        <time>2025-09-04T01:15:08.714Z</time>
      </trkpt>
      <trkpt lat="43.140847" lon="-4.847331">
        <ele>1651.790262</ele>
        <time>2025-09-04T01:15:28.973Z</time>
      </trkpt>
      <trkpt lat="43.140774" lon="-4.847347">
        <ele>1649.864278</ele>
        <time>2025-09-04T01:15:44.828Z</time>
      </trkpt>
      <trkpt lat="43.140716" lon="-4.847432">
        <ele>1647.652013</ele>
        <time>2025-09-04T01:16:02.637Z</time>
      </trkpt>
      <trkpt lat="43.140662" lon="-4.847382">
        <ele>1645.954198</ele>
        <time>2025-09-04T01:16:16.463Z</time>
      </trkpt>
      <trkpt lat="43.140673" lon="-4.847203">
        <ele>1642.539406</ele>
        <time>2025-09-04T01:16:43.382Z</time>
      </trkpt>
      <trkpt lat="43.140654" lon="-4.847155">
        <ele>1641.501323</ele>
        <time>2025-09-04T01:16:51.316Z</time>
      </trkpt>
      <trkpt lat="43.140685" lon="-4.846978">
        <ele>1638.041029</ele>
        <time>2025-09-04T01:17:18.291Z</time>
      </trkpt>
      <trkpt lat="43.140644" lon="-4.846784">
        <ele>1634.201566</ele>
        <time>2025-09-04T01:17:47.856Z</time>
      </trkpt>
      <trkpt lat="43.140527" lon="-4.846580">
        <ele>1629.269035</ele>
        <time>2025-09-04T01:18:25.163Z</time>
      </trkpt>
      <trkpt lat="43.140502" lon="-4.846410">
        <ele>1626.837160</ele>
        <time>2025-09-04T01:18:49.192Z</time>
      </trkpt>
      <trkpt lat="43.140386" lon="-4.846177">
        <ele>1623.292721</ele>
        <time>2025-09-04T01:19:26.689Z</time>
      </trkpt>
      <trkpt lat="43.140200" lon="-4.845631">
        <ele>1615.720808</ele>
        <time>2025-09-04T01:20:42.467Z</time>
      </trkpt>
      <trkpt lat="43.140093" lon="-4.845422">
        <ele>1612.512559</ele>
        <time>2025-09-04T01:21:13.203Z</time>
      </trkpt>
      <trkpt lat="43.140078" lon="-4.845337">
        <ele>1611.413653</ele>
        <time>2025-09-04T01:21:23.625Z</time>
      </trkpt>
      <trkpt lat="43.139935" lon="-4.845083">
        <ele>1607.382278</ele>
        <time>2025-09-04T01:22:01.653Z</time>
      </trkpt>
      <trkpt lat="43.139831" lon="-4.845002">
        <ele>1605.322249</ele>
        <time>2025-09-04T01:22:20.846Z</time>
      </trkpt>
      <trkpt lat="43.139773" lon="-4.845005">
        <ele>1604.322709</ele>
        <time>2025-09-04T01:22:30.131Z</time>
      </trkpt>
      <trkpt lat="43.139703" lon="-4.844946">
        <ele>1602.907483</ele>
        <time>2025-09-04T01:22:43.263Z</time>
      </trkpt>
      <trkpt lat="43.139637" lon="-4.844931">
        <ele>1601.755360</ele>
        <time>2025-09-04T01:22:53.951Z</time>
      </trkpt>
      <trkpt lat="43.139555" lon="-4.844841">
        <ele>1599.946165</ele>
        <time>2025-09-04T01:23:10.680Z</time>
      </trkpt>
      <trkpt lat="43.139279" lon="-4.844665">
        <ele>1595.740724</ele>
        <time>2025-09-04T01:23:58.744Z</time>
      </trkpt>
      <trkpt lat="43.139121" lon="-4.844629">
        <ele>1593.987799</ele>
        <time>2025-09-04T01:24:23.999Z</time>
      </trkpt>
      <trkpt lat="43.138971" lon="-4.844450">
        <ele>1591.811014</ele>
        <time>2025-09-04T01:24:55.278Z</time>
      </trkpt>
      <trkpt lat="43.138871" lon="-4.844177">
        <ele>1589.371564</ele>
        <time>2025-09-04T01:25:30.094Z</time>
      </trkpt>
      <trkpt lat="43.138828" lon="-4.843893">
        <ele>1587.055235</ele>
        <time>2025-09-04T01:26:02.833Z</time>
      </trkpt>
      <trkpt lat="43.138830" lon="-4.843805">
        <ele>1586.352126</ele>
        <time>2025-09-04T01:26:12.706Z</time>
      </trkpt>
      <trkpt lat="43.138858" lon="-4.843743">
        <ele>1585.769838</ele>
        <time>2025-09-04T01:26:20.769Z</time>
      </trkpt>
      <trkpt lat="43.138856" lon="-4.843541">
        <ele>1584.156520</ele>
        <time>2025-09-04T01:26:43.172Z</time>
      </trkpt>
      <trkpt lat="43.138918" lon="-4.843374">
        <ele>1582.660169</ele>
        <time>2025-09-04T01:27:03.648Z</time>
      </trkpt>
      <trkpt lat="43.138918" lon="-4.843298">
        <ele>1582.053235</ele>
        <time>2025-09-04T01:27:11.867Z</time>
      </trkpt>
      <trkpt lat="43.138946" lon="-4.843277">
        <ele>1581.703907</ele>
        <time>2025-09-04T01:27:16.525Z</time>
      </trkpt>
      <trkpt lat="43.138797" lon="-4.843161">
        <ele>1579.828456</ele>
        <time>2025-09-04T01:27:41.260Z</time>
      </trkpt>
      <trkpt lat="43.138685" lon="-4.843025">
        <ele>1578.190751</ele>
        <time>2025-09-04T01:28:02.547Z</time>
      </trkpt>
      <trkpt lat="43.138649" lon="-4.842749">
        <ele>1576.612541</ele>
        <time>2025-09-04T01:28:31.006Z</time>
      </trkpt>
      <trkpt lat="43.138606" lon="-4.842631">
        <ele>1575.923233</ele>
        <time>2025-09-04T01:28:44.296Z</time>
      </trkpt>
      <trkpt lat="43.138443" lon="-4.842268">
        <ele>1573.695716</ele>
        <time>2025-09-04T01:29:27.248Z</time>
      </trkpt>
      <trkpt lat="43.138334" lon="-4.842081">
        <ele>1572.444901</ele>
        <time>2025-09-04T01:29:51.166Z</time>
      </trkpt>
      <trkpt lat="43.138264" lon="-4.841994">
        <ele>1571.768088</ele>
        <time>2025-09-04T01:30:04.066Z</time>
      </trkpt>
      <trkpt lat="43.137968" lon="-4.841741">
        <ele>1569.269581</ele>
        <time>2025-09-04T01:30:52.499Z</time>
      </trkpt>
      <trkpt lat="43.137925" lon="-4.841592">
        <ele>1568.432188</ele>
        <time>2025-09-04T01:31:08.955Z</time>
      </trkpt>
      <trkpt lat="43.137968" lon="-4.841363">
        <ele>1567.196397</ele>
        <time>2025-09-04T01:31:33.479Z</time>
      </trkpt>
      <trkpt lat="43.137940" lon="-4.841293">
        <ele>1566.779204</ele>
        <time>2025-09-04T01:31:41.901Z</time>
      </trkpt>
      <trkpt lat="43.137816" lon="-4.841285">
        <ele>1565.890127</ele>
        <time>2025-09-04T01:32:00.028Z</time>
      </trkpt>
      <trkpt lat="43.137623" lon="-4.841164">
        <ele>1563.641764</ele>
        <time>2025-09-04T01:32:31.764Z</time>
      </trkpt>
      <trkpt lat="43.137423" lon="-4.841115">
        <ele>1560.454842</ele>
        <time>2025-09-04T01:33:03.143Z</time>
      </trkpt>
      <trkpt lat="43.137220" lon="-4.840994">
        <ele>1556.982438</ele>
        <time>2025-09-04T01:33:38.800Z</time>
      </trkpt>
      <trkpt lat="43.137017" lon="-4.840936">
        <ele>1553.729728</ele>
        <time>2025-09-04T01:34:14.886Z</time>
      </trkpt>
      <trkpt lat="43.136948" lon="-4.840874">
        <ele>1552.435485</ele>
        <time>2025-09-04T01:34:30.000Z</time>
      </trkpt>
      <trkpt lat="43.136860" lon="-4.840849">
        <ele>1551.025776</ele>
        <time>2025-09-04T01:34:46.006Z</time>
      </trkpt>
      <trkpt lat="43.136624" lon="-4.840667">
        <ele>1546.777982</ele>
        <time>2025-09-04T01:35:34.071Z</time>
      </trkpt>
      <trkpt lat="43.136418" lon="-4.840617">
        <ele>1543.496393</ele>
        <time>2025-09-04T01:36:10.480Z</time>
      </trkpt>
      <trkpt lat="43.136279" lon="-4.840671">
        <ele>1541.230132</ele>
        <time>2025-09-04T01:36:35.271Z</time>
      </trkpt>
      <trkpt lat="43.136152" lon="-4.840617">
        <ele>1539.144332</ele>
        <time>2025-09-04T01:36:57.588Z</time>
      </trkpt>
      <trkpt lat="43.136032" lon="-4.840406">
        <ele>1536.478099</ele>
        <time>2025-09-04T01:37:29.723Z</time>
      </trkpt>
      <trkpt lat="43.135888" lon="-4.840273">
        <ele>1535.325013</ele>
        <time>2025-09-04T01:37:58.040Z</time>
      </trkpt>
      <trkpt lat="43.135669" lon="-4.839858">
        <ele>1532.843398</ele>
        <time>2025-09-04T01:38:44.709Z</time>
      </trkpt>
      <trkpt lat="43.135588" lon="-4.839617">
        <ele>1531.557708</ele>
        <time>2025-09-04T01:39:07.634Z</time>
      </trkpt>
      <trkpt lat="43.135629" lon="-4.838847">
        <ele>1527.816703</ele>
        <time>2025-09-04T01:40:06.794Z</time>
      </trkpt>
      <trkpt lat="43.135706" lon="-4.838627">
        <ele>1526.634407</ele>
        <time>2025-09-04T01:40:25.678Z</time>
      </trkpt>
      <trkpt lat="43.135808" lon="-4.838485">
        <ele>1525.668918</ele>
        <time>2025-09-04T01:40:40.956Z</time>
      </trkpt>
      <trkpt lat="43.136042" lon="-4.838303">
        <ele>1524.289499</ele>
        <time>2025-09-04T01:41:08.918Z</time>
      </trkpt>
      <trkpt lat="43.136173" lon="-4.838098">
        <ele>1523.539213</ele>
        <time>2025-09-04T01:41:28.831Z</time>
      </trkpt>
      <trkpt lat="43.136472" lon="-4.837991">
        <ele>1522.373192</ele>
        <time>2025-09-04T01:42:00.905Z</time>
      </trkpt>
      <trkpt lat="43.136521" lon="-4.837885">
        <ele>1522.027698</ele>
        <time>2025-09-04T01:42:10.695Z</time>
      </trkpt>
      <trkpt lat="43.136469" lon="-4.837156">
        <ele>1520.010898</ele>
        <time>2025-09-04T01:43:09.885Z</time>
      </trkpt>
      <trkpt lat="43.136170" lon="-4.836694">
        <ele>1518.310608</ele>
        <time>2025-09-04T01:44:01.318Z</time>
      </trkpt>
      <trkpt lat="43.136021" lon="-4.836369">
        <ele>1516.814958</ele>
        <time>2025-09-04T01:44:33.065Z</time>
      </trkpt>
      <trkpt lat="43.135926" lon="-4.836060">
        <ele>1515.375593</ele>
        <time>2025-09-04T01:45:00.490Z</time>
      </trkpt>
      <trkpt lat="43.135938" lon="-4.835701">
        <ele>1513.832893</ele>
        <time>2025-09-04T01:45:29.624Z</time>
      </trkpt>
      <trkpt lat="43.136068" lon="-4.835484">
        <ele>1512.627677</ele>
        <time>2025-09-04T01:45:52.041Z</time>
      </trkpt>
      <trkpt lat="43.136263" lon="-4.835407">
        <ele>1511.433901</ele>
        <time>2025-09-04T01:46:14.029Z</time>
      </trkpt>
      <trkpt lat="43.136453" lon="-4.835197">
        <ele>1509.997981</ele>
        <time>2025-09-04T01:46:40.637Z</time>
      </trkpt>
      <trkpt lat="43.136667" lon="-4.835068">
        <ele>1508.622698</ele>
        <time>2025-09-04T01:47:06.324Z</time>
      </trkpt>
      <trkpt lat="43.136851" lon="-4.834646">
        <ele>1505.125890</ele>
        <time>2025-09-04T01:47:47.113Z</time>
      </trkpt>
      <trkpt lat="43.136866" lon="-4.834569">
        <ele>1504.282163</ele>
        <time>2025-09-04T01:47:53.907Z</time>
      </trkpt>
      <trkpt lat="43.136810" lon="-4.834346">
        <ele>1501.785432</ele>
        <time>2025-09-04T01:48:14.408Z</time>
      </trkpt>
      <trkpt lat="43.136752" lon="-4.834272">
        <ele>1500.635736</ele>
        <time>2025-09-04T01:48:24.205Z</time>
      </trkpt>
      <trkpt lat="43.136724" lon="-4.833888">
        <ele>1496.550169</ele>
        <time>2025-09-04T01:48:59.138Z</time>
      </trkpt>
      <trkpt lat="43.136665" lon="-4.833724">
        <ele>1494.614405</ele>
        <time>2025-09-04T01:49:16.085Z</time>
      </trkpt>
      <trkpt lat="43.136538" lon="-4.833551">
        <ele>1492.016468</ele>
        <time>2025-09-04T01:49:39.341Z</time>
      </trkpt>
      <trkpt lat="43.136405" lon="-4.833127">
        <ele>1487.130507</ele>
        <time>2025-09-04T01:50:25.615Z</time>
      </trkpt>
      <trkpt lat="43.136365" lon="-4.832607">
        <ele>1481.594850</ele>
        <time>2025-09-04T01:51:21.838Z</time>
      </trkpt>
      <trkpt lat="43.136309" lon="-4.832215">
        <ele>1475.949500</ele>
        <time>2025-09-04T01:52:05.807Z</time>
      </trkpt>
      <trkpt lat="43.135968" lon="-4.831638">
        <ele>1465.303381</ele>
        <time>2025-09-04T01:53:27.232Z</time>
      </trkpt>
      <trkpt lat="43.135930" lon="-4.831505">
        <ele>1463.255412</ele>
        <time>2025-09-04T01:53:42.336Z</time>
      </trkpt>
      <trkpt lat="43.135917" lon="-4.831250">
        <ele>1459.590204</ele>
        <time>2025-09-04T01:54:09.705Z</time>
      </trkpt>
      <trkpt lat="43.135796" lon="-4.830679">
        <ele>1451.064740</ele>
        <time>2025-09-04T01:55:11.967Z</time>
      </trkpt>
      <trkpt lat="43.135746" lon="-4.830331">
        <ele>1445.987497</ele>
        <time>2025-09-04T01:55:47.168Z</time>
      </trkpt>
      <trkpt lat="43.135734" lon="-4.829947">
        <ele>1441.541389</ele>
        <time>2025-09-04T01:56:23.866Z</time>
      </trkpt>
      <trkpt lat="43.135713" lon="-4.829707">
        <ele>1438.745229</ele>
        <time>2025-09-04T01:56:46.721Z</time>
      </trkpt>
      <trkpt lat="43.135788" lon="-4.829345">
        <ele>1434.392182</ele>
        <time>2025-09-04T01:57:22.101Z</time>
      </trkpt>
      <trkpt lat="43.135779" lon="-4.829219">
        <ele>1432.927673</ele>
        <time>2025-09-04T01:57:34.054Z</time>
      </trkpt>
      <trkpt lat="43.135747" lon="-4.829098">
        <ele>1431.438886</ele>
        <time>2025-09-04T01:57:46.239Z</time>
      </trkpt>
      <trkpt lat="43.135466" lon="-4.828502">
        <ele>1423.230658</ele>
        <time>2025-09-04T01:58:53.667Z</time>
      </trkpt>
      <trkpt lat="43.135381" lon="-4.828154">
        <ele>1418.985526</ele>
        <time>2025-09-04T01:59:28.524Z</time>
      </trkpt>
      <trkpt lat="43.135351" lon="-4.827881">
        <ele>1416.097468</ele>
        <time>2025-09-04T01:59:54.503Z</time>
      </trkpt>
      <trkpt lat="43.135359" lon="-4.827536">
        <ele>1412.814650</ele>
        <time>2025-09-04T02:00:26.783Z</time>
      </trkpt>
      <trkpt lat="43.135390" lon="-4.827185">
        <ele>1409.452066</ele>
        <time>2025-09-04T02:00:59.366Z</time>
      </trkpt>
      <trkpt lat="43.135941" lon="-4.826139">
        <ele>1397.182915</ele>
        <time>2025-09-04T02:02:55.965Z</time>
      </trkpt>
      <trkpt lat="43.135961" lon="-4.826041">
        <ele>1396.215122</ele>
        <time>2025-09-04T02:03:05.083Z</time>
      </trkpt>
      <trkpt lat="43.135950" lon="-4.825937">
        <ele>1395.215692</ele>
        <time>2025-09-04T02:03:14.438Z</time>
      </trkpt>
      <trkpt lat="43.135636" lon="-4.825398">
        <ele>1388.546859</ele>
        <time>2025-09-04T02:04:16.199Z</time>
      </trkpt>
      <trkpt lat="43.135584" lon="-4.825251">
        <ele>1386.961771</ele>
        <time>2025-09-04T02:04:30.939Z</time>
      </trkpt>
      <trkpt lat="43.135585" lon="-4.825167">
        <ele>1386.146611</ele>
        <time>2025-09-04T02:04:38.661Z</time>
      </trkpt>
      <trkpt lat="43.135781" lon="-4.824266">
        <ele>1377.024049</ele>
        <time>2025-09-04T02:06:05.174Z</time>
      </trkpt>
      <trkpt lat="43.136162" lon="-4.823474">
        <ele>1367.331845</ele>
        <time>2025-09-04T02:07:33.401Z</time>
      </trkpt>
      <trkpt lat="43.136185" lon="-4.823230">
        <ele>1364.445467</ele>
        <time>2025-09-04T02:07:56.572Z</time>
      </trkpt>
      <trkpt lat="43.136167" lon="-4.822980">
        <ele>1361.498239</ele>
        <time>2025-09-04T02:08:20.256Z</time>
      </trkpt>
      <trkpt lat="43.136065" lon="-4.822790">
        <ele>1358.730946</ele>
        <time>2025-09-04T02:08:42.649Z</time>
      </trkpt>
      <trkpt lat="43.135894" lon="-4.822556">
        <ele>1354.845772</ele>
        <time>2025-09-04T02:09:14.397Z</time>
      </trkpt>
      <trkpt lat="43.135827" lon="-4.822516">
        <ele>1353.670822</ele>
        <time>2025-09-04T02:09:24.120Z</time>
      </trkpt>
      <trkpt lat="43.135736" lon="-4.822517">
        <ele>1352.207760</ele>
        <time>2025-09-04T02:09:36.231Z</time>
      </trkpt>
      <trkpt lat="43.135531" lon="-4.822774">
        <ele>1347.740842</ele>
        <time>2025-09-04T02:10:13.727Z</time>
      </trkpt>
      <trkpt lat="43.135441" lon="-4.822952">
        <ele>1345.200238</ele>
        <time>2025-09-04T02:10:35.003Z</time>
      </trkpt>
      <trkpt lat="43.135353" lon="-4.822958">
        <ele>1343.783705</ele>
        <time>2025-09-04T02:10:46.948Z</time>
      </trkpt>
      <trkpt lat="43.135277" lon="-4.822848">
        <ele>1342.006513</ele>
        <time>2025-09-04T02:11:01.631Z</time>
      </trkpt>
      <trkpt lat="43.135037" lon="-4.822316">
        <ele>1335.318139</ele>
        <time>2025-09-04T02:12:01.718Z</time>
      </trkpt>
      <trkpt lat="43.134990" lon="-4.822248">
        <ele>1334.327980</ele>
        <time>2025-09-04T02:12:10.557Z</time>
      </trkpt>
      <trkpt lat="43.134928" lon="-4.822217">
        <ele>1333.371858</ele>
        <time>2025-09-04T02:12:19.098Z</time>
      </trkpt>
      <trkpt lat="43.134870" lon="-4.822242">
        <ele>1332.491020</ele>
        <time>2025-09-04T02:12:26.982Z</time>
      </trkpt>
      <trkpt lat="43.134815" lon="-4.822293">
        <ele>1331.528952</ele>
        <time>2025-09-04T02:12:35.460Z</time>
      </trkpt>
      <trkpt lat="43.134669" lon="-4.822561">
        <ele>1327.993253</ele>
        <time>2025-09-04T02:13:06.640Z</time>
      </trkpt>
      <trkpt lat="43.134648" lon="-4.822951">
        <ele>1323.858987</ele>
        <time>2025-09-04T02:13:42.143Z</time>
      </trkpt>
      <trkpt lat="43.134492" lon="-4.823264">
        <ele>1319.851848</ele>
        <time>2025-09-04T02:14:16.358Z</time>
      </trkpt>
      <trkpt lat="43.134397" lon="-4.823567">
        <ele>1316.365400</ele>
        <time>2025-09-04T02:14:46.355Z</time>
      </trkpt>
      <trkpt lat="43.134359" lon="-4.823865">
        <ele>1312.965231</ele>
        <time>2025-09-04T02:15:14.328Z</time>
      </trkpt>
      <trkpt lat="43.134424" lon="-4.824340">
        <ele>1307.343016</ele>
        <time>2025-09-04T02:15:59.233Z</time>
      </trkpt>
      <trkpt lat="43.134401" lon="-4.824426">
        <ele>1306.277467</ele>
        <time>2025-09-04T02:16:07.702Z</time>
      </trkpt>
      <trkpt lat="43.134304" lon="-4.824462">
        <ele>1304.675414</ele>
        <time>2025-09-04T02:16:20.727Z</time>
      </trkpt>
      <trkpt lat="43.134263" lon="-4.824424">
        <ele>1303.886343</ele>
        <time>2025-09-04T02:16:27.020Z</time>
      </trkpt>
      <trkpt lat="43.133995" lon="-4.823935">
        <ele>1296.771885</ele>
        <time>2025-09-04T02:17:25.255Z</time>
      </trkpt>
      <trkpt lat="43.133816" lon="-4.823288">
        <ele>1288.722209</ele>
        <time>2025-09-04T02:18:34.354Z</time>
      </trkpt>
      <trkpt lat="43.133763" lon="-4.822966">
        <ele>1284.658349</ele>
        <time>2025-09-04T02:19:08.788Z</time>
      </trkpt>
      <trkpt lat="43.133772" lon="-4.822713">
        <ele>1281.305411</ele>
        <time>2025-09-04T02:19:34.334Z</time>
      </trkpt>
      <trkpt lat="43.133749" lon="-4.822623">
        <ele>1280.043144</ele>
        <time>2025-09-04T02:19:43.763Z</time>
      </trkpt>
      <trkpt lat="43.133595" lon="-4.822286">
        <ele>1274.779835</ele>
        <time>2025-09-04T02:20:22.907Z</time>
      </trkpt>
      <trkpt lat="43.133335" lon="-4.821514">
        <ele>1263.525062</ele>
        <time>2025-09-04T02:21:45.870Z</time>
      </trkpt>
      <trkpt lat="43.133002" lon="-4.820777">
        <ele>1252.225101</ele>
        <time>2025-09-04T02:23:14.848Z</time>
      </trkpt>
      <trkpt lat="43.132955" lon="-4.820170">
        <ele>1244.915053</ele>
        <time>2025-09-04T02:24:18.872Z</time>
      </trkpt>
      <trkpt lat="43.132801" lon="-4.819588">
        <ele>1237.501171</ele>
        <time>2025-09-04T02:25:20.110Z</time>
      </trkpt>
      <trkpt lat="43.132602" lon="-4.819251">
        <ele>1232.309610</ele>
        <time>2025-09-04T02:26:01.026Z</time>
      </trkpt>
      <trkpt lat="43.132542" lon="-4.819091">
        <ele>1230.155312</ele>
        <time>2025-09-04T02:26:17.731Z</time>
      </trkpt>
      <trkpt lat="43.132539" lon="-4.818964">
        <ele>1228.633592</ele>
        <time>2025-09-04T02:26:29.383Z</time>
      </trkpt>
      <trkpt lat="43.132580" lon="-4.818857">
        <ele>1227.186286</ele>
        <time>2025-09-04T02:26:40.494Z</time>
      </trkpt>
      <trkpt lat="43.132680" lon="-4.818772">
        <ele>1225.255182</ele>
        <time>2025-09-04T02:26:55.292Z</time>
      </trkpt>
      <trkpt lat="43.133004" lon="-4.818629">
        <ele>1221.215907</ele>
        <time>2025-09-04T02:27:37.624Z</time>
      </trkpt>
      <trkpt lat="43.133124" lon="-4.818518">
        <ele>1219.622736</ele>
        <time>2025-09-04T02:27:55.413Z</time>
      </trkpt>
      <trkpt lat="43.133449" lon="-4.818121">
        <ele>1214.831763</ele>
        <time>2025-09-04T02:28:48.752Z</time>
      </trkpt>
      <trkpt lat="43.133487" lon="-4.817995">
        <ele>1213.736947</ele>
        <time>2025-09-04T02:29:00.843Z</time>
      </trkpt>
      <trkpt lat="43.133509" lon="-4.817657">
        <ele>1211.011936</ele>
        <time>2025-09-04T02:29:30.751Z</time>
      </trkpt>
      <trkpt lat="43.133404" lon="-4.817186">
        <ele>1207.057124</ele>
        <time>2025-09-04T02:30:13.809Z</time>
      </trkpt>
      <trkpt lat="43.133413" lon="-4.817081">
        <ele>1206.208146</ele>
        <time>2025-09-04T02:30:22.979Z</time>
      </trkpt>
      <trkpt lat="43.133438" lon="-4.816980">
        <ele>1205.351702</ele>
        <time>2025-09-04T02:30:32.312Z</time>
      </trkpt>
      <trkpt lat="43.133672" lon="-4.816653">
        <ele>1203.366126</ele>
        <time>2025-09-04T02:31:12.080Z</time>
      </trkpt>
      <trkpt lat="43.133764" lon="-4.816646">
        <ele>1202.944285</ele>
        <time>2025-09-04T02:31:22.788Z</time>
      </trkpt>
      <trkpt lat="43.133925" lon="-4.816632">
        <ele>1202.205717</ele>
        <time>2025-09-04T02:31:41.390Z</time>
      </trkpt>
      <trkpt lat="43.134125" lon="-4.816703">
        <ele>1201.259856</ele>
        <time>2025-09-04T02:32:04.487Z</time>
      </trkpt>
      <trkpt lat="43.134390" lon="-4.816812">
        <ele>1199.993164</ele>
        <time>2025-09-04T02:32:34.245Z</time>
      </trkpt>
      <trkpt lat="43.134489" lon="-4.816929">
        <ele>1199.394650</ele>
        <time>2025-09-04T02:32:47.824Z</time>
      </trkpt>
      <trkpt lat="43.134703" lon="-4.816752">
        <ele>1198.250292</ele>
        <time>2025-09-04T02:33:13.237Z</time>
      </trkpt>
      <trkpt lat="43.134884" lon="-4.816718">
        <ele>1197.413894</ele>
        <time>2025-09-04T02:33:31.586Z</time>
      </trkpt>
      <trkpt lat="43.135104" lon="-4.816725">
        <ele>1196.406424</ele>
        <time>2025-09-04T02:33:53.992Z</time>
      </trkpt>
      <trkpt lat="43.135463" lon="-4.816962">
        <ele>1194.016891</ele>
        <time>2025-09-04T02:34:35.725Z</time>
      </trkpt>
      <trkpt lat="43.135725" lon="-4.816938">
        <ele>1192.427615</ele>
        <time>2025-09-04T02:35:04.006Z</time>
      </trkpt>
      <trkpt lat="43.135933" lon="-4.817050">
        <ele>1191.075011</ele>
        <time>2025-09-04T02:35:28.482Z</time>
      </trkpt>
      <trkpt lat="43.136165" lon="-4.816975">
        <ele>1189.632305</ele>
        <time>2025-09-04T02:35:55.255Z</time>
      </trkpt>
      <trkpt lat="43.136364" lon="-4.817128">
        <ele>1188.251258</ele>
        <time>2025-09-04T02:36:21.592Z</time>
      </trkpt>
      <trkpt lat="43.136632" lon="-4.817047">
        <ele>1186.590224</ele>
        <time>2025-09-04T02:36:54.542Z</time>
      </trkpt>
      <trkpt lat="43.136984" lon="-4.817149">
        <ele>1183.761100</ele>
        <time>2025-09-04T02:37:39.003Z</time>
      </trkpt>
      <trkpt lat="43.137108" lon="-4.816878">
        <ele>1181.461932</ele>
        <time>2025-09-04T02:38:07.548Z</time>
      </trkpt>
      <trkpt lat="43.137171" lon="-4.816544">
        <ele>1178.982294</ele>
        <time>2025-09-04T02:38:37.902Z</time>
      </trkpt>
      <trkpt lat="43.137183" lon="-4.816022">
        <ele>1175.228394</ele>
        <time>2025-09-04T02:39:22.789Z</time>
      </trkpt>
      <trkpt lat="43.137237" lon="-4.815902">
        <ele>1174.215036</ele>
        <time>2025-09-04T02:39:34.805Z</time>
      </trkpt>
      <trkpt lat="43.137400" lon="-4.815893">
        <ele>1172.608164</ele>
        <time>2025-09-04T02:39:53.786Z</time>
      </trkpt>
      <trkpt lat="43.137623" lon="-4.815941">
        <ele>1170.384658</ele>
        <time>2025-09-04T02:40:20.309Z</time>
      </trkpt>
      <trkpt lat="43.137940" lon="-4.815929">
        <ele>1167.078787</ele>
        <time>2025-09-04T02:40:58.011Z</time>
      </trkpt>
      <trkpt lat="43.138193" lon="-4.815842">
        <ele>1163.520274</ele>
        <time>2025-09-04T02:41:29.472Z</time>
      </trkpt>
      <trkpt lat="43.138452" lon="-4.815619">
        <ele>1159.347411</ele>
        <time>2025-09-04T02:42:06.858Z</time>
      </trkpt>
      <trkpt lat="43.138651" lon="-4.815546">
        <ele>1156.537007</ele>
        <time>2025-09-04T02:42:32.887Z</time>
      </trkpt>
      <trkpt lat="43.138774" lon="-4.815594">
        <ele>1154.792293</ele>
        <time>2025-09-04T02:42:49.332Z</time>
      </trkpt>
      <trkpt lat="43.138973" lon="-4.815432">
        <ele>1151.634605</ele>
        <time>2025-09-04T02:43:19.358Z</time>
      </trkpt>
      <trkpt lat="43.139085" lon="-4.815164">
        <ele>1148.560166</ele>
        <time>2025-09-04T02:43:49.018Z</time>
      </trkpt>
      <trkpt lat="43.139190" lon="-4.814774">
        <ele>1144.421984</ele>
        <time>2025-09-04T02:44:29.304Z</time>
      </trkpt>
      <trkpt lat="43.139238" lon="-4.814594">
        <ele>1142.599382</ele>
        <time>2025-09-04T02:44:47.796Z</time>
      </trkpt>
      <trkpt lat="43.139570" lon="-4.813937">
        <ele>1135.636831</ele>
        <time>2025-09-04T02:46:02.809Z</time>
      </trkpt>
      <trkpt lat="43.139886" lon="-4.813618">
        <ele>1130.950775</ele>
        <time>2025-09-04T02:46:51.115Z</time>
      </trkpt>
      <trkpt lat="43.141395" lon="-4.812787">
        <ele>1114.655572</ele>
        <time>2025-09-04T02:50:02.435Z</time>
      </trkpt>
      <trkpt lat="43.141594" lon="-4.812638">
        <ele>1112.777794</ele>
        <time>2025-09-04T02:50:28.501Z</time>
      </trkpt>
      <trkpt lat="43.141818" lon="-4.812569">
        <ele>1110.876613</ele>
        <time>2025-09-04T02:50:54.959Z</time>
      </trkpt>
      <trkpt lat="43.142334" lon="-4.812614">
        <ele>1106.612742</ele>
        <time>2025-09-04T02:51:54.766Z</time>
      </trkpt>
      <trkpt lat="43.142735" lon="-4.812598">
        <ele>1103.543867</ele>
        <time>2025-09-04T02:52:41.274Z</time>
      </trkpt>
      <trkpt lat="43.142922" lon="-4.812558">
        <ele>1102.096034</ele>
        <time>2025-09-04T02:53:03.354Z</time>
      </trkpt>
      <trkpt lat="43.142910" lon="-4.812501">
        <ele>1101.764899</ele>
        <time>2025-09-04T02:53:08.537Z</time>
      </trkpt>
      <trkpt lat="43.142958" lon="-4.812422">
        <ele>1101.191079</ele>
        <time>2025-09-04T02:53:17.348Z</time>
      </trkpt>
      <trkpt lat="43.143022" lon="-4.812436">
        <ele>1100.695294</ele>
        <time>2025-09-04T02:53:24.863Z</time>
      </trkpt>
      <trkpt lat="43.143100" lon="-4.812524">
        <ele>1099.922443</ele>
        <time>2025-09-04T02:53:36.537Z</time>
      </trkpt>
      <trkpt lat="43.143126" lon="-4.812467">
        <ele>1099.547234</ele>
        <time>2025-09-04T02:53:42.207Z</time>
      </trkpt>
      <trkpt lat="43.143147" lon="-4.812425">
        <ele>1099.263043</ele>
        <time>2025-09-04T02:53:46.460Z</time>
      </trkpt>
      <trkpt lat="43.143247" lon="-4.812219">
        <ele>1097.881997</ele>
        <time>2025-09-04T02:54:07.137Z</time>
      </trkpt>
      <trkpt lat="43.143269" lon="-4.812132">
        <ele>1097.368056</ele>
        <time>2025-09-04T02:54:14.792Z</time>
      </trkpt>
      <trkpt lat="43.143302" lon="-4.812112">
        <ele>1097.092031</ele>
        <time>2025-09-04T02:54:18.971Z</time>
      </trkpt>
      <trkpt lat="43.143334" lon="-4.812153">
        <ele>1096.756926</ele>
        <time>2025-09-04T02:54:24.018Z</time>
      </trkpt>
      <trkpt lat="43.143423" lon="-4.812286">
        <ele>1095.749637</ele>
        <time>2025-09-04T02:54:39.223Z</time>
      </trkpt>
      <trkpt lat="43.143710" lon="-4.812290">
        <ele>1093.554028</ele>
        <time>2025-09-04T02:55:12.587Z</time>
      </trkpt>
      <trkpt lat="43.143766" lon="-4.812237">
        <ele>1093.067746</ele>
        <time>2025-09-04T02:55:20.409Z</time>
      </trkpt>
      <trkpt lat="43.143842" lon="-4.812381">
        <ele>1093.067746</ele>
        <time>2025-09-04T02:55:35.052Z</time>
      </trkpt>
      <trkpt lat="43.144067" lon="-4.812588">
        <ele>1093.067746</ele>
        <time>2025-09-04T02:56:05.544Z</time>
      </trkpt>
      <trkpt lat="43.144139" lon="-4.812703">
        <ele>1093.067746</ele>
        <time>2025-09-04T02:56:17.763Z</time>
      </trkpt>
      <trkpt lat="43.144272" lon="-4.812768">
        <ele>1093.067746</ele>
        <time>2025-09-04T02:56:33.277Z</time>
      </trkpt>
      <trkpt lat="43.144339" lon="-4.812758">
        <ele>1093.067746</ele>
        <time>2025-09-04T02:56:40.585Z</time>
      </trkpt>
      <trkpt lat="43.144397" lon="-4.812611">
        <ele>1093.067746</ele>
        <time>2025-09-04T02:56:53.813Z</time>
      </trkpt>
      <trkpt lat="43.144383" lon="-4.812414">
        <ele>1093.067746</ele>
        <time>2025-09-04T02:57:09.229Z</time>
      </trkpt>
    </trkseg>
  </trk>
</gpx>